PWSweather.com
Personal Weather Stations
Station Observations
OZIERI
Punta Idda, OzieriIT

Punta IddaOzieriIT

Lat: 40.584142, Lon: 9.007657999999992

Elevation: 1483

Station Type: Lacrosse ws2350

Latest ConditionsUpdated 11:34:43 PM GMT+01:01 Thursday, Dec 14, 2017
Currently Today's Max Today's Min Today's Average
Temperature 52.5°F11.4°C 52.9°F11.6°C 46.6°F8.1°C 50.8°F10.4°C
Dew Point 48.4°F9.1°C 48.7°F9.3°C 40.5°F4.7°C 45.8°F7.7°C
Winds 3.1 mph W5.0 kmh W 9.2 mph W14.8 kmh W - 4.1 mph 6.6 kmh
Wind Gusts 4.9 mph7.9 kmh 22.8 mph36.7 kmh - -
Humidity 86% 87% 77% 83%
Pressure 29.90 in1012.5 mb 30.14 in1020.7 mb 29.90 in1012.5 mb -
Hour Temp Dew Point Humidity Winds Wind Gusts Pressure Precip Precip Rate Daily Precip Total
11:34 PM 52.5°F11.4°C 48.4°F9.1°C 86% 3.1 mph W5.0 kmh W 4.9 mph7.9 kmh 29.90 in1012.5 mb 0.00 in0.0 mm 0.00 in0.0 mm 0.00 in0.0 mm
11:32 PM 52.5°F11.4°C 48.7°F9.3°C 87% 3.8 mph W6.1 kmh W 6.7 mph10.8 kmh 29.91 in1012.9 mb 0.00 in0.0 mm 0.00 in0.0 mm 0.00 in0.0 mm
11:30 PM 52.5°F11.4°C 48.4°F9.1°C 86% 4.7 mph 7.6 kmh 11.6 mph18.7 kmh 29.91 in1012.9 mb 0.00 in0.0 mm 0.00 in0.0 mm 0.00 in0.0 mm
11:27 PM 52.5°F11.4°C 48.4°F9.1°C 86% 3.8 mph NW6.1 kmh NW 6.5 mph10.5 kmh 29.91 in1012.9 mb 0.00 in0.0 mm 0.00 in0.0 mm 0.00 in0.0 mm
11:25 PM 52.5°F11.4°C 48.4°F9.1°C 86% 3.6 mph W5.8 kmh W 6.0 mph9.7 kmh 29.90 in1012.5 mb 0.00 in0.0 mm 0.00 in0.0 mm 0.00 in0.0 mm
11:23 PM 52.5°F11.4°C 48.4°F9.1°C 86% 4.5 mph WSW7.2 kmh WSW 5.4 mph8.7 kmh 29.90 in1012.5 mb 0.00 in0.0 mm 0.00 in0.0 mm 0.00 in0.0 mm
11:21 PM 52.5°F11.4°C 48.4°F9.1°C 86% 4.9 mph W7.9 kmh W 10.3 mph16.6 kmh 29.90 in1012.5 mb 0.00 in0.0 mm 0.00 in0.0 mm 0.00 in0.0 mm
11:18 PM 52.5°F11.4°C 48.4°F9.1°C 86% 4.7 mph NW7.6 kmh NW 11.2 mph18.0 kmh 29.91 in1012.9 mb 0.00 in0.0 mm 0.00 in0.0 mm 0.00 in0.0 mm
11:16 PM 52.5°F11.4°C 48.4°F9.1°C 86% 4.9 mph W7.9 kmh W 8.7 mph14.0 kmh 29.91 in1012.9 mb 0.00 in0.0 mm 0.00 in0.0 mm 0.00 in0.0 mm
11:14 PM 52.5°F11.4°C 48.4°F9.1°C 86% 4.7 mph NW7.6 kmh NW 14.8 mph23.8 kmh 29.90 in1012.5 mb 0.00 in0.0 mm 0.00 in0.0 mm 0.00 in0.0 mm
11:12 PM 52.5°F11.4°C 48.4°F9.1°C 86% 3.8 mph WSW6.1 kmh WSW 12.5 mph20.1 kmh 29.90 in1012.5 mb 0.00 in0.0 mm 0.00 in0.0 mm 0.00 in0.0 mm
11:10 PM 52.5°F11.4°C 48.4°F9.1°C 86% 3.4 mph WNW5.5 kmh WNW 3.6 mph5.8 kmh 29.90 in1012.5 mb 0.00 in0.0 mm 0.00 in0.0 mm 0.00 in0.0 mm
11:07 PM 52.5°F11.4°C 48.4°F9.1°C 86% 4.3 mph NNW6.9 kmh NNW 11.6 mph18.7 kmh 29.90 in1012.5 mb 0.00 in0.0 mm 0.00 in0.0 mm 0.00 in0.0 mm
11:05 PM 52.5°F11.4°C 48.4°F9.1°C 86% 4.7 mph WNW7.6 kmh WNW 15.9 mph25.6 kmh 29.90 in1012.5 mb 0.00 in0.0 mm 0.00 in0.0 mm 0.00 in0.0 mm
11:03 PM 52.5°F11.4°C 48.4°F9.1°C 86% 3.8 mph 6.1 kmh 5.8 mph9.3 kmh 29.90 in1012.5 mb 0.00 in0.0 mm 0.00 in0.0 mm 0.00 in0.0 mm
11:01 PM 52.5°F11.4°C 48.4°F9.1°C 86% 4.7 mph NE7.6 kmh NE 9.8 mph15.8 kmh 29.90 in1012.5 mb 0.00 in0.0 mm 0.00 in0.0 mm 0.00 in0.0 mm
10:59 PM 52.5°F11.4°C 48.4°F9.1°C 86% 4.9 mph SSE7.9 kmh SSE 8.7 mph14.0 kmh 29.90 in1012.5 mb 0.00 in0.0 mm 0.00 in0.0 mm 0.00 in0.0 mm
10:56 PM 52.5°F11.4°C 48.4°F9.1°C 86% 4.7 mph WNW7.6 kmh WNW 7.4 mph11.9 kmh 29.90 in1012.5 mb 0.00 in0.0 mm 0.00 in0.0 mm 0.00 in0.0 mm
10:54 PM 52.5°F11.4°C 48.4°F9.1°C 86% 4.3 mph 6.9 kmh 7.6 mph12.2 kmh 29.91 in1012.9 mb 0.00 in0.0 mm 0.00 in0.0 mm 0.00 in0.0 mm
10:52 PM 52.5°F11.4°C 48.4°F9.1°C 86% 4.7 mph WNW7.6 kmh WNW 8.5 mph13.7 kmh 29.91 in1012.9 mb 0.00 in0.0 mm 0.00 in0.0 mm 0.00 in0.0 mm
10:50 PM 52.5°F11.4°C 48.4°F9.1°C 86% 4.3 mph SW6.9 kmh SW 9.2 mph14.8 kmh 29.90 in1012.5 mb 0.00 in0.0 mm 0.00 in0.0 mm 0.00 in0.0 mm
10:48 PM 52.5°F11.4°C 48.4°F9.1°C 86% 3.6 mph WSW5.8 kmh WSW 7.6 mph12.2 kmh 29.90 in1012.5 mb 0.00 in0.0 mm 0.00 in0.0 mm 0.00 in0.0 mm
10:46 PM 52.5°F11.4°C 48.4°F9.1°C 86% 3.6 mph NW5.8 kmh NW 5.4 mph8.7 kmh 29.91 in1012.9 mb 0.00 in0.0 mm 0.00 in0.0 mm 0.00 in0.0 mm
10:44 PM 52.5°F11.4°C 48.4°F9.1°C 86% 4.3 mph NW6.9 kmh NW 4.7 mph7.6 kmh 29.91 in1012.9 mb 0.00 in0.0 mm 0.00 in0.0 mm 0.00 in0.0 mm
10:41 PM 52.5°F11.4°C 48.4°F9.1°C 86% 4.9 mph WNW7.9 kmh WNW 8.5 mph13.7 kmh 29.91 in1012.9 mb 0.00 in0.0 mm 0.00 in0.0 mm 0.00 in0.0 mm
10:39 PM 52.5°F11.4°C 48.7°F9.3°C 87% 4.7 mph W7.6 kmh W 7.6 mph12.2 kmh 29.91 in1012.9 mb 0.00 in0.0 mm 0.00 in0.0 mm 0.00 in0.0 mm
10:37 PM 52.5°F11.4°C 48.7°F9.3°C 87% 4.0 mph WNW6.4 kmh WNW 5.8 mph9.3 kmh 29.91 in1012.9 mb 0.00 in0.0 mm 0.00 in0.0 mm 0.00 in0.0 mm
10:35 PM 52.5°F11.4°C 48.7°F9.3°C 87% 4.3 mph WNW6.9 kmh WNW 6.3 mph10.1 kmh 29.91 in1012.9 mb 0.00 in0.0 mm 0.00 in0.0 mm 0.00 in0.0 mm
10:32 PM 52.5°F11.4°C 48.7°F9.3°C 87% 3.6 mph SE5.8 kmh SE 6.3 mph10.1 kmh 29.91 in1012.9 mb 0.00 in0.0 mm 0.00 in0.0 mm 0.00 in0.0 mm
10:30 PM 52.5°F11.4°C 48.7°F9.3°C 87% 3.6 mph NNW5.8 kmh NNW 5.8 mph9.3 kmh 29.91 in1012.9 mb 0.00 in0.0 mm 0.00 in0.0 mm 0.00 in0.0 mm
10:28 PM 52.5°F11.4°C 48.7°F9.3°C 87% 3.8 mph NNE6.1 kmh NNE 4.7 mph7.6 kmh 29.91 in1012.9 mb 0.00 in0.0 mm 0.00 in0.0 mm 0.00 in0.0 mm
10:26 PM 52.5°F11.4°C 48.7°F9.3°C 87% 4.0 mph WNW6.4 kmh WNW 5.1 mph8.2 kmh 29.91 in1012.9 mb 0.00 in0.0 mm 0.00 in0.0 mm 0.00 in0.0 mm
10:23 PM 52.5°F11.4°C 48.7°F9.3°C 87% 4.5 mph WNW7.2 kmh WNW 8.5 mph13.7 kmh 29.91 in1012.9 mb 0.00 in0.0 mm 0.00 in0.0 mm 0.00 in0.0 mm
10:21 PM 52.5°F11.4°C 48.7°F9.3°C 87% 4.0 mph WNW6.4 kmh WNW 8.5 mph13.7 kmh 29.92 in1013.2 mb 0.00 in0.0 mm 0.00 in0.0 mm 0.00 in0.0 mm
10:19 PM 52.5°F11.4°C 48.7°F9.3°C 87% 3.4 mph WNW5.5 kmh WNW 6.7 mph10.8 kmh 29.91 in1012.9 mb 0.00 in0.0 mm 0.00 in0.0 mm 0.00 in0.0 mm
10:17 PM 52.5°F11.4°C 48.7°F9.3°C 87% 3.8 mph NW6.1 kmh NW 6.9 mph11.1 kmh 29.92 in1013.2 mb 0.00 in0.0 mm 0.00 in0.0 mm 0.00 in0.0 mm
10:14 PM 52.5°F11.4°C 48.7°F9.3°C 87% 3.1 mph 5.0 kmh 4.5 mph7.2 kmh 29.92 in1013.2 mb 0.00 in0.0 mm 0.00 in0.0 mm 0.00 in0.0 mm
10:12 PM 52.5°F11.4°C 48.7°F9.3°C 87% 2.9 mph NW4.7 kmh NW 6.0 mph9.7 kmh 29.92 in1013.2 mb 0.00 in0.0 mm 0.00 in0.0 mm 0.00 in0.0 mm
10:10 PM 52.5°F11.4°C 48.7°F9.3°C 87% 3.6 mph 5.8 kmh 7.4 mph11.9 kmh 29.92 in1013.2 mb 0.00 in0.0 mm 0.00 in0.0 mm 0.00 in0.0 mm
10:08 PM 52.5°F11.4°C 48.7°F9.3°C 87% 3.8 mph WNW6.1 kmh WNW 7.4 mph11.9 kmh 29.91 in1012.9 mb 0.00 in0.0 mm 0.00 in0.0 mm 0.00 in0.0 mm
10:05 PM 52.3°F11.3°C 48.6°F9.2°C 87% 3.6 mph NW5.8 kmh NW 6.5 mph10.5 kmh 29.91 in1012.9 mb 0.00 in0.0 mm 0.00 in0.0 mm 0.00 in0.0 mm
10:03 PM 52.3°F11.3°C 48.6°F9.2°C 87% 3.4 mph 5.5 kmh 3.6 mph5.8 kmh 29.91 in1012.9 mb 0.00 in0.0 mm 0.00 in0.0 mm 0.00 in0.0 mm
10:01 PM 52.3°F11.3°C 48.6°F9.2°C 87% 4.5 mph W7.2 kmh W 8.1 mph13.0 kmh 29.91 in1012.9 mb 0.00 in0.0 mm 0.00 in0.0 mm 0.00 in0.0 mm
09:59 PM 52.3°F11.3°C 48.6°F9.2°C 87% 3.6 mph W5.8 kmh W 5.8 mph9.3 kmh 29.91 in1012.9 mb 0.00 in0.0 mm 0.00 in0.0 mm 0.00 in0.0 mm
09:56 PM 52.3°F11.3°C 48.6°F9.2°C 87% 4.0 mph NW6.4 kmh NW 10.3 mph16.6 kmh 29.92 in1013.2 mb 0.00 in0.0 mm 0.00 in0.0 mm 0.00 in0.0 mm
09:54 PM 52.3°F11.3°C 48.6°F9.2°C 87% 3.4 mph WNW5.5 kmh WNW 5.1 mph8.2 kmh 29.92 in1013.2 mb 0.00 in0.0 mm 0.00 in0.0 mm 0.00 in0.0 mm
09:52 PM 52.3°F11.3°C 48.6°F9.2°C 87% 3.6 mph 5.8 kmh 3.6 mph5.8 kmh 29.92 in1013.2 mb 0.00 in0.0 mm 0.00 in0.0 mm 0.00 in0.0 mm
09:50 PM 52.3°F11.3°C 48.6°F9.2°C 87% 4.7 mph NNE7.6 kmh NNE 8.9 mph14.3 kmh 29.92 in1013.2 mb 0.00 in0.0 mm 0.00 in0.0 mm 0.00 in0.0 mm
09:48 PM 52.3°F11.3°C 48.6°F9.2°C 87% 4.3 mph SSE6.9 kmh SSE 10.5 mph16.9 kmh 29.92 in1013.2 mb 0.00 in0.0 mm 0.00 in0.0 mm 0.00 in0.0 mm
09:45 PM 52.3°F11.3°C 48.6°F9.2°C 87% 3.1 mph NNE5.0 kmh NNE 4.0 mph6.4 kmh 29.92 in1013.2 mb 0.00 in0.0 mm 0.00 in0.0 mm 0.00 in0.0 mm
09:43 PM 52.3°F11.3°C 48.6°F9.2°C 87% 3.8 mph ENE6.1 kmh ENE 5.4 mph8.7 kmh 29.92 in1013.2 mb 0.00 in0.0 mm 0.00 in0.0 mm 0.00 in0.0 mm
09:41 PM 52.3°F11.3°C 48.6°F9.2°C 87% 3.4 mph WSW5.5 kmh WSW 10.3 mph16.6 kmh 29.92 in1013.2 mb 0.00 in0.0 mm 0.00 in0.0 mm 0.00 in0.0 mm
09:39 PM 52.3°F11.3°C 48.6°F9.2°C 87% 2.0 mph NW3.2 kmh NW 2.9 mph4.7 kmh 29.92 in1013.2 mb 0.00 in0.0 mm 0.00 in0.0 mm 0.00 in0.0 mm
09:37 PM 52.3°F11.3°C 48.6°F9.2°C 87% 2.7 mph W4.3 kmh W 6.0 mph9.7 kmh 29.92 in1013.2 mb 0.00 in0.0 mm 0.00 in0.0 mm 0.00 in0.0 mm
09:34 PM 52.3°F11.3°C 48.6°F9.2°C 87% 2.9 mph W4.7 kmh W 2.9 mph4.7 kmh 29.92 in1013.2 mb 0.00 in0.0 mm 0.00 in0.0 mm 0.00 in0.0 mm
09:32 PM 52.3°F11.3°C 48.6°F9.2°C 87% 3.6 mph NW5.8 kmh NW 6.7 mph10.8 kmh 29.92 in1013.2 mb 0.00 in0.0 mm 0.00 in0.0 mm 0.00 in0.0 mm
09:30 PM 52.3°F11.3°C 48.6°F9.2°C 87% 3.4 mph W5.5 kmh W 10.5 mph16.9 kmh 29.92 in1013.2 mb 0.00 in0.0 mm 0.00 in0.0 mm 0.00 in0.0 mm
09:28 PM 52.3°F11.3°C 48.6°F9.2°C 87% 2.2 mph WSW3.5 kmh WSW 2.0 mph3.2 kmh 29.92 in1013.2 mb 0.00 in0.0 mm 0.00 in0.0 mm 0.00 in0.0 mm
09:25 PM 52.3°F11.3°C 48.6°F9.2°C 87% 3.8 mph SE6.1 kmh SE 9.4 mph15.1 kmh 29.92 in1013.2 mb 0.00 in0.0 mm 0.00 in0.0 mm 0.00 in0.0 mm
09:23 PM 52.3°F11.3°C 48.6°F9.2°C 87% 3.8 mph WNW6.1 kmh WNW 8.1 mph13.0 kmh 29.93 in1013.5 mb 0.00 in0.0 mm 0.00 in0.0 mm 0.00 in0.0 mm
09:21 PM 52.3°F11.3°C 48.6°F9.2°C 87% 4.0 mph WSW6.4 kmh WSW 8.7 mph14.0 kmh 29.93 in1013.5 mb 0.00 in0.0 mm 0.00 in0.0 mm 0.00 in0.0 mm
09:19 PM 52.3°F11.3°C 48.6°F9.2°C 87% 2.7 mph WSW4.3 kmh WSW 7.6 mph12.2 kmh 29.93 in1013.5 mb 0.00 in0.0 mm 0.00 in0.0 mm 0.00 in0.0 mm
09:16 PM 52.3°F11.3°C 48.6°F9.2°C 87% 3.4 mph SSE5.5 kmh SSE 8.5 mph13.7 kmh 29.93 in1013.5 mb 0.00 in0.0 mm 0.00 in0.0 mm 0.00 in0.0 mm
09:14 PM 52.3°F11.3°C 48.6°F9.2°C 87% 3.4 mph WNW5.5 kmh WNW 3.8 mph6.1 kmh 29.93 in1013.5 mb 0.00 in0.0 mm 0.00 in0.0 mm 0.00 in0.0 mm
09:12 PM 52.3°F11.3°C 48.6°F9.2°C 87% 4.0 mph WSW6.4 kmh WSW 4.7 mph7.6 kmh 29.93 in1013.5 mb 0.00 in0.0 mm 0.00 in0.0 mm 0.00 in0.0 mm
09:10 PM 52.3°F11.3°C 48.6°F9.2°C 87% 4.0 mph WNW6.4 kmh WNW 6.0 mph9.7 kmh 29.93 in1013.5 mb 0.00 in0.0 mm 0.00 in0.0 mm 0.00 in0.0 mm
09:08 PM 52.3°F11.3°C 48.6°F9.2°C 87% 4.5 mph NW7.2 kmh NW 6.5 mph10.5 kmh 29.92 in1013.2 mb 0.00 in0.0 mm 0.00 in0.0 mm 0.00 in0.0 mm
09:05 PM 52.3°F11.3°C 48.6°F9.2°C 87% 5.6 mph WSW9.0 kmh WSW 9.6 mph15.4 kmh 29.93 in1013.5 mb 0.00 in0.0 mm 0.00 in0.0 mm 0.00 in0.0 mm
09:03 PM 52.3°F11.3°C 48.6°F9.2°C 87% 4.9 mph NNW7.9 kmh NNW 8.3 mph13.4 kmh 29.93 in1013.5 mb 0.00 in0.0 mm 0.00 in0.0 mm 0.00 in0.0 mm
09:01 PM 52.3°F11.3°C 48.6°F9.2°C 87% 6.0 mph NNW9.7 kmh NNW 14.5 mph23.3 kmh 29.93 in1013.5 mb 0.00 in0.0 mm 0.00 in0.0 mm 0.00 in0.0 mm
08:57 PM 52.3°F11.3°C 48.2°F9.0°C 86% 4.9 mph WNW7.9 kmh WNW 7.8 mph12.6 kmh 29.93 in1013.5 mb 0.00 in0.0 mm 0.00 in0.0 mm 0.00 in0.0 mm
08:55 PM 52.3°F11.3°C 48.2°F9.0°C 86% 4.7 mph WNW7.6 kmh WNW 7.6 mph12.2 kmh 29.93 in1013.5 mb 0.00 in0.0 mm 0.00 in0.0 mm 0.00 in0.0 mm
08:52 PM 52.3°F11.3°C 48.2°F9.0°C 86% 4.0 mph W6.4 kmh W 7.8 mph12.6 kmh 29.93 in1013.5 mb 0.00 in0.0 mm 0.00 in0.0 mm 0.00 in0.0 mm
08:50 PM 52.3°F11.3°C 48.2°F9.0°C 86% 4.9 mph W7.9 kmh W 11.2 mph18.0 kmh 29.92 in1013.2 mb 0.00 in0.0 mm 0.00 in0.0 mm 0.00 in0.0 mm
08:48 PM 52.3°F11.3°C 48.2°F9.0°C 86% 5.1 mph WSW8.2 kmh WSW 12.3 mph19.8 kmh 29.93 in1013.5 mb 0.00 in0.0 mm 0.00 in0.0 mm 0.00 in0.0 mm
08:46 PM 52.3°F11.3°C 48.2°F9.0°C 86% 3.8 mph SSW6.1 kmh SSW 4.9 mph7.9 kmh 29.92 in1013.2 mb 0.00 in0.0 mm 0.00 in0.0 mm 0.00 in0.0 mm
08:44 PM 52.3°F11.3°C 48.2°F9.0°C 86% 4.7 mph NW7.6 kmh NW 10.5 mph16.9 kmh 29.92 in1013.2 mb 0.00 in0.0 mm 0.00 in0.0 mm 0.00 in0.0 mm
08:41 PM 52.3°F11.3°C 48.6°F9.2°C 87% 4.0 mph SSW6.4 kmh SSW 10.5 mph16.9 kmh 29.93 in1013.5 mb 0.00 in0.0 mm 0.00 in0.0 mm 0.00 in0.0 mm
08:39 PM 52.3°F11.3°C 48.6°F9.2°C 87% 3.4 mph WSW5.5 kmh WSW 5.1 mph8.2 kmh 29.92 in1013.2 mb 0.00 in0.0 mm 0.00 in0.0 mm 0.00 in0.0 mm
08:37 PM 52.3°F11.3°C 48.6°F9.2°C 87% 3.6 mph WSW5.8 kmh WSW 5.8 mph9.3 kmh 29.92 in1013.2 mb 0.00 in0.0 mm 0.00 in0.0 mm 0.00 in0.0 mm
08:35 PM 52.3°F11.3°C 48.6°F9.2°C 87% 4.0 mph NE6.4 kmh NE 8.1 mph13.0 kmh 29.92 in1013.2 mb 0.00 in0.0 mm 0.00 in0.0 mm 0.00 in0.0 mm
08:33 PM 52.3°F11.3°C 48.6°F9.2°C 87% 3.4 mph SW5.5 kmh SW 7.4 mph11.9 kmh 29.92 in1013.2 mb 0.00 in0.0 mm 0.00 in0.0 mm 0.00 in0.0 mm
08:31 PM 52.2°F11.2°C 48.4°F9.1°C 87% 4.3 mph SE6.9 kmh SE 10.5 mph16.9 kmh 29.92 in1013.2 mb 0.00 in0.0 mm 0.00 in0.0 mm 0.00 in0.0 mm
08:28 PM 52.2°F11.2°C 48.4°F9.1°C 87% 3.1 mph WSW5.0 kmh WSW 8.7 mph14.0 kmh 29.93 in1013.5 mb 0.00 in0.0 mm 0.00 in0.0 mm 0.00 in0.0 mm
08:26 PM 52.2°F11.2°C 48.4°F9.1°C 87% 2.7 mph W4.3 kmh W 2.7 mph4.3 kmh 29.93 in1013.5 mb 0.00 in0.0 mm 0.00 in0.0 mm 0.00 in0.0 mm
08:24 PM 52.2°F11.2°C 48.4°F9.1°C 87% 3.1 mph 5.0 kmh 6.0 mph9.7 kmh 29.93 in1013.5 mb 0.00 in0.0 mm 0.00 in0.0 mm 0.00 in0.0 mm
08:22 PM 52.2°F11.2°C 48.4°F9.1°C 87% 2.9 mph NNW4.7 kmh NNW 6.0 mph9.7 kmh 29.93 in1013.5 mb 0.00 in0.0 mm 0.00 in0.0 mm 0.00 in0.0 mm
08:19 PM 52.2°F11.2°C 48.4°F9.1°C 87% 2.0 mph WNW3.2 kmh WNW 2.5 mph4.0 kmh 29.93 in1013.5 mb 0.00 in0.0 mm 0.00 in0.0 mm 0.00 in0.0 mm
08:17 PM 52.2°F11.2°C 48.4°F9.1°C 87% 2.9 mph NW4.7 kmh NW 3.1 mph5.0 kmh 29.93 in1013.5 mb 0.00 in0.0 mm 0.00 in0.0 mm 0.00 in0.0 mm
08:15 PM 52.2°F11.2°C 48.4°F9.1°C 87% 4.7 mph WNW7.6 kmh WNW 10.1 mph16.3 kmh 29.93 in1013.5 mb 0.00 in0.0 mm 0.00 in0.0 mm 0.00 in0.0 mm
08:12 PM 52.2°F11.2°C 48.4°F9.1°C 87% 4.7 mph WSW7.6 kmh WSW 9.6 mph15.4 kmh 29.94 in1013.9 mb 0.00 in0.0 mm 0.00 in0.0 mm 0.00 in0.0 mm
08:10 PM 52.2°F11.2°C 48.4°F9.1°C 87% 5.6 mph WNW9.0 kmh WNW 10.3 mph16.6 kmh 29.93 in1013.5 mb 0.00 in0.0 mm 0.00 in0.0 mm 0.00 in0.0 mm
08:08 PM 52.2°F11.2°C 48.4°F9.1°C 87% 5.4 mph WNW8.7 kmh WNW 10.3 mph16.6 kmh 29.94 in1013.9 mb 0.00 in0.0 mm 0.00 in0.0 mm 0.00 in0.0 mm
08:06 PM 52.2°F11.2°C 48.0°F8.9°C 86% 6.0 mph WNW9.7 kmh WNW 12.1 mph19.5 kmh 29.93 in1013.5 mb 0.00 in0.0 mm 0.00 in0.0 mm 0.00 in0.0 mm
08:03 PM 52.2°F11.2°C 48.0°F8.9°C 86% 5.1 mph 8.2 kmh 10.7 mph17.2 kmh 29.93 in1013.5 mb 0.00 in0.0 mm 0.00 in0.0 mm 0.00 in0.0 mm
08:01 PM 52.2°F11.2°C 48.0°F8.9°C 86% 3.8 mph WSW6.1 kmh WSW 3.1 mph5.0 kmh 29.93 in1013.5 mb 0.00 in0.0 mm 0.00 in0.0 mm 0.00 in0.0 mm
07:59 PM 52.2°F11.2°C 48.0°F8.9°C 86% 5.4 mph W8.7 kmh W 8.7 mph14.0 kmh 29.94 in1013.9 mb 0.00 in0.0 mm 0.00 in0.0 mm 0.00 in0.0 mm
07:57 PM 52.2°F11.2°C 48.0°F8.9°C 86% 5.6 mph WNW9.0 kmh WNW 11.6 mph18.7 kmh 29.93 in1013.5 mb 0.00 in0.0 mm 0.00 in0.0 mm 0.00 in0.0 mm
07:55 PM 52.2°F11.2°C 48.0°F8.9°C 86% 4.0 mph NW6.4 kmh NW 4.0 mph6.4 kmh 29.94 in1013.9 mb 0.00 in0.0 mm 0.00 in0.0 mm 0.00 in0.0 mm
07:52 PM 52.2°F11.2°C 48.0°F8.9°C 86% 5.4 mph W8.7 kmh W 8.9 mph14.3 kmh 29.94 in1013.9 mb 0.00 in0.0 mm 0.00 in0.0 mm 0.00 in0.0 mm
07:50 PM 52.2°F11.2°C 48.0°F8.9°C 86% 4.9 mph NW7.9 kmh NW 12.1 mph19.5 kmh 29.94 in1013.9 mb 0.00 in0.0 mm 0.00 in0.0 mm 0.00 in0.0 mm
07:48 PM 52.2°F11.2°C 48.0°F8.9°C 86% 4.7 mph WSW7.6 kmh WSW 10.3 mph16.6 kmh 29.95 in1014.2 mb 0.00 in0.0 mm 0.00 in0.0 mm 0.00 in0.0 mm
07:46 PM 52.2°F11.2°C 48.0°F8.9°C 86% 4.0 mph WNW6.4 kmh WNW 4.3 mph6.9 kmh 29.95 in1014.2 mb 0.00 in0.0 mm 0.00 in0.0 mm 0.00 in0.0 mm
07:43 PM 52.2°F11.2°C 48.0°F8.9°C 86% 5.4 mph NW8.7 kmh NW 15.2 mph24.5 kmh 29.95 in1014.2 mb 0.00 in0.0 mm 0.00 in0.0 mm 0.00 in0.0 mm
07:41 PM 52.2°F11.2°C 48.0°F8.9°C 86% 4.3 mph WSW6.9 kmh WSW 5.1 mph8.2 kmh 29.95 in1014.2 mb 0.00 in0.0 mm 0.00 in0.0 mm 0.00 in0.0 mm
07:39 PM 52.2°F11.2°C 48.0°F8.9°C 86% 4.9 mph NW7.9 kmh NW 16.3 mph26.2 kmh 29.95 in1014.2 mb 0.00 in0.0 mm 0.00 in0.0 mm 0.00 in0.0 mm
07:37 PM 52.0°F11.1°C 47.8°F8.8°C 86% 4.5 mph WNW7.2 kmh WNW 10.3 mph16.6 kmh 29.95 in1014.2 mb 0.00 in0.0 mm 0.00 in0.0 mm 0.00 in0.0 mm
07:35 PM 52.0°F11.1°C 47.8°F8.8°C 86% 4.0 mph W6.4 kmh W 5.8 mph9.3 kmh 29.95 in1014.2 mb 0.00 in0.0 mm 0.00 in0.0 mm 0.00 in0.0 mm
07:32 PM 52.0°F11.1°C 47.8°F8.8°C 86% 3.8 mph SSW6.1 kmh SSW 6.7 mph10.8 kmh 29.95 in1014.2 mb 0.00 in0.0 mm 0.00 in0.0 mm 0.00 in0.0 mm
07:30 PM 52.0°F11.1°C 48.2°F9.0°C 87% 3.4 mph WSW5.5 kmh WSW 7.4 mph11.9 kmh 29.95 in1014.2 mb 0.00 in0.0 mm 0.00 in0.0 mm 0.00 in0.0 mm
07:28 PM 52.0°F11.1°C 48.2°F9.0°C 87% 1.8 mph WSW2.9 kmh WSW 2.5 mph4.0 kmh 29.95 in1014.2 mb 0.00 in0.0 mm 0.00 in0.0 mm 0.00 in0.0 mm
07:26 PM 52.0°F11.1°C 48.2°F9.0°C 87% 2.0 mph NW3.2 kmh NW 4.5 mph7.2 kmh 29.95 in1014.2 mb 0.00 in0.0 mm 0.00 in0.0 mm 0.00 in0.0 mm
07:24 PM 52.0°F11.1°C 48.2°F9.0°C 87% 2.5 mph W4.0 kmh W 3.6 mph5.8 kmh 29.94 in1013.9 mb 0.00 in0.0 mm 0.00 in0.0 mm 0.00 in0.0 mm
07:22 PM 51.8°F11.0°C 48.0°F8.9°C 87% 3.1 mph WSW5.0 kmh WSW 4.7 mph7.6 kmh 29.95 in1014.2 mb 0.00 in0.0 mm 0.00 in0.0 mm 0.00 in0.0 mm
07:19 PM 52.0°F11.1°C 48.2°F9.0°C 87% 3.1 mph W5.0 kmh W 5.4 mph8.7 kmh 29.94 in1013.9 mb 0.00 in0.0 mm 0.00 in0.0 mm 0.00 in0.0 mm
07:17 PM 52.0°F11.1°C 48.2°F9.0°C 87% 2.7 mph W4.3 kmh W 3.6 mph5.8 kmh 29.94 in1013.9 mb 0.00 in0.0 mm 0.00 in0.0 mm 0.00 in0.0 mm
07:15 PM 52.0°F11.1°C 48.2°F9.0°C 87% 2.9 mph WNW4.7 kmh WNW 7.8 mph12.6 kmh 29.94 in1013.9 mb 0.00 in0.0 mm 0.00 in0.0 mm 0.00 in0.0 mm
07:13 PM 52.0°F11.1°C 48.2°F9.0°C 87% 2.7 mph W4.3 kmh W 4.7 mph7.6 kmh 29.94 in1013.9 mb 0.00 in0.0 mm 0.00 in0.0 mm 0.00 in0.0 mm
07:11 PM 52.0°F11.1°C 48.2°F9.0°C 87% 2.5 mph W4.0 kmh W 6.0 mph9.7 kmh 29.95 in1014.2 mb 0.00 in0.0 mm 0.00 in0.0 mm 0.00 in0.0 mm
07:09 PM 52.0°F11.1°C 48.2°F9.0°C 87% 2.5 mph SW4.0 kmh SW 4.3 mph6.9 kmh 29.95 in1014.2 mb 0.00 in0.0 mm 0.00 in0.0 mm 0.00 in0.0 mm
07:06 PM 52.0°F11.1°C 48.2°F9.0°C 87% 2.5 mph NNW4.0 kmh NNW 8.9 mph14.3 kmh 29.96 in1014.6 mb 0.00 in0.0 mm 0.00 in0.0 mm 0.00 in0.0 mm
07:04 PM 52.0°F11.1°C 48.2°F9.0°C 87% 1.6 mph NNE2.6 kmh NNE 1.6 mph2.6 kmh 29.96 in1014.6 mb 0.00 in0.0 mm 0.00 in0.0 mm 0.00 in0.0 mm
07:02 PM 52.0°F11.1°C 48.2°F9.0°C 87% 2.9 mph WNW4.7 kmh WNW 6.3 mph10.1 kmh 29.96 in1014.6 mb 0.00 in0.0 mm 0.00 in0.0 mm 0.00 in0.0 mm
06:59 PM 52.0°F11.1°C 48.2°F9.0°C 87% 3.4 mph WNW5.5 kmh WNW 8.3 mph13.4 kmh 29.96 in1014.6 mb 0.00 in0.0 mm 0.00 in0.0 mm 0.00 in0.0 mm
06:57 PM 52.0°F11.1°C 48.2°F9.0°C 87% 2.9 mph NW4.7 kmh NW 4.0 mph6.4 kmh 29.96 in1014.6 mb 0.00 in0.0 mm 0.00 in0.0 mm 0.00 in0.0 mm
06:55 PM 52.0°F11.1°C 48.2°F9.0°C 87% 3.8 mph WNW6.1 kmh WNW 9.6 mph15.4 kmh 29.96 in1014.6 mb 0.00 in0.0 mm 0.00 in0.0 mm 0.00 in0.0 mm
06:53 PM 52.0°F11.1°C 48.2°F9.0°C 87% 3.4 mph NW5.5 kmh NW 3.1 mph5.0 kmh 29.96 in1014.6 mb 0.00 in0.0 mm 0.00 in0.0 mm 0.00 in0.0 mm
06:51 PM 52.0°F11.1°C 48.2°F9.0°C 87% 4.3 mph S6.9 kmh S 4.3 mph6.9 kmh 29.96 in1014.6 mb 0.00 in0.0 mm 0.00 in0.0 mm 0.00 in0.0 mm
06:49 PM 52.0°F11.1°C 48.2°F9.0°C 87% 4.9 mph WNW7.9 kmh WNW 10.3 mph16.6 kmh 29.96 in1014.6 mb 0.00 in0.0 mm 0.00 in0.0 mm 0.00 in0.0 mm
06:47 PM 52.0°F11.1°C 48.2°F9.0°C 87% 4.7 mph NW7.6 kmh NW 9.8 mph15.8 kmh 29.96 in1014.6 mb 0.00 in0.0 mm 0.00 in0.0 mm 0.00 in0.0 mm
06:44 PM 52.0°F11.1°C 48.2°F9.0°C 87% 5.8 mph WSW9.3 kmh WSW 10.3 mph16.6 kmh 29.96 in1014.6 mb 0.00 in0.0 mm 0.00 in0.0 mm 0.00 in0.0 mm
06:42 PM 52.0°F11.1°C 47.8°F8.8°C 86% 4.9 mph WSW7.9 kmh WSW 8.5 mph13.7 kmh 29.96 in1014.6 mb 0.00 in0.0 mm 0.00 in0.0 mm 0.00 in0.0 mm
06:40 PM 52.0°F11.1°C 47.8°F8.8°C 86% 5.1 mph NNW8.2 kmh NNW 13.0 mph20.9 kmh 29.96 in1014.6 mb 0.00 in0.0 mm 0.00 in0.0 mm 0.00 in0.0 mm
06:38 PM 52.0°F11.1°C 47.8°F8.8°C 86% 3.8 mph 6.1 kmh 4.3 mph6.9 kmh 29.96 in1014.6 mb 0.00 in0.0 mm 0.00 in0.0 mm 0.00 in0.0 mm
06:36 PM 52.0°F11.1°C 47.8°F8.8°C 86% 4.7 mph W7.6 kmh W 10.1 mph16.3 kmh 29.96 in1014.6 mb 0.00 in0.0 mm 0.00 in0.0 mm 0.00 in0.0 mm
06:34 PM 52.0°F11.1°C 47.8°F8.8°C 86% 3.6 mph NNW5.8 kmh NNW 8.1 mph13.0 kmh 29.96 in1014.6 mb 0.00 in0.0 mm 0.00 in0.0 mm 0.00 in0.0 mm
06:32 PM 52.0°F11.1°C 47.8°F8.8°C 86% 4.0 mph WNW6.4 kmh WNW 8.1 mph13.0 kmh 29.96 in1014.6 mb 0.00 in0.0 mm 0.00 in0.0 mm 0.00 in0.0 mm
06:29 PM 52.0°F11.1°C 47.8°F8.8°C 86% 3.8 mph W6.1 kmh W 8.5 mph13.7 kmh 29.96 in1014.6 mb 0.00 in0.0 mm 0.00 in0.0 mm 0.00 in0.0 mm
06:27 PM 52.0°F11.1°C 47.8°F8.8°C 86% 2.2 mph WSW3.5 kmh WSW 5.1 mph8.2 kmh 29.96 in1014.6 mb 0.00 in0.0 mm 0.00 in0.0 mm 0.00 in0.0 mm
06:25 PM 52.0°F11.1°C 47.8°F8.8°C 86% 2.2 mph SSE3.5 kmh SSE 5.6 mph9.0 kmh 29.96 in1014.6 mb 0.00 in0.0 mm 0.00 in0.0 mm 0.00 in0.0 mm
06:23 PM 52.0°F11.1°C 47.8°F8.8°C 86% 2.2 mph WSW3.5 kmh WSW 3.1 mph5.0 kmh 29.96 in1014.6 mb 0.00 in0.0 mm 0.00 in0.0 mm 0.00 in0.0 mm
06:21 PM 52.0°F11.1°C 47.8°F8.8°C 86% 3.1 mph NNW5.0 kmh NNW 8.9 mph14.3 kmh 29.96 in1014.6 mb 0.00 in0.0 mm 0.00 in0.0 mm 0.00 in0.0 mm
06:19 PM 52.0°F11.1°C 47.8°F8.8°C 86% 2.7 mph WSW4.3 kmh WSW 6.9 mph11.1 kmh 29.96 in1014.6 mb 0.00 in0.0 mm 0.00 in0.0 mm 0.00 in0.0 mm
06:16 PM 52.0°F11.1°C 47.8°F8.8°C 86% 3.4 mph NNW5.5 kmh NNW 4.9 mph7.9 kmh 29.96 in1014.6 mb 0.00 in0.0 mm 0.00 in0.0 mm 0.00 in0.0 mm
06:14 PM 52.0°F11.1°C 47.8°F8.8°C 86% 3.6 mph WNW5.8 kmh WNW 6.9 mph11.1 kmh 29.96 in1014.6 mb 0.00 in0.0 mm 0.00 in0.0 mm 0.00 in0.0 mm
06:12 PM 52.0°F11.1°C 47.8°F8.8°C 86% 3.6 mph W5.8 kmh W 5.8 mph9.3 kmh 29.96 in1014.6 mb 0.00 in0.0 mm 0.00 in0.0 mm 0.00 in0.0 mm
06:10 PM 52.0°F11.1°C 47.8°F8.8°C 86% 4.5 mph WNW7.2 kmh WNW 9.6 mph15.4 kmh 29.96 in1014.6 mb 0.00 in0.0 mm 0.00 in0.0 mm 0.00 in0.0 mm
06:08 PM 52.0°F11.1°C 47.8°F8.8°C 86% 3.8 mph W6.1 kmh W 5.4 mph8.7 kmh 29.96 in1014.6 mb 0.00 in0.0 mm 0.00 in0.0 mm 0.00 in0.0 mm
06:05 PM 52.0°F11.1°C 47.8°F8.8°C 86% 4.7 mph W7.6 kmh W 7.4 mph11.9 kmh 29.96 in1014.6 mb 0.00 in0.0 mm 0.00 in0.0 mm 0.00 in0.0 mm
06:03 PM 52.0°F11.1°C 47.8°F8.8°C 86% 4.3 mph NW6.9 kmh NW 7.6 mph12.2 kmh 29.95 in1014.2 mb 0.00 in0.0 mm 0.00 in0.0 mm 0.00 in0.0 mm
06:01 PM 52.0°F11.1°C 47.8°F8.8°C 86% 3.6 mph W5.8 kmh W 8.9 mph14.3 kmh 29.95 in1014.2 mb 0.00 in0.0 mm 0.00 in0.0 mm 0.00 in0.0 mm
05:59 PM 52.0°F11.1°C 47.8°F8.8°C 86% 2.5 mph WNW4.0 kmh WNW 3.8 mph6.1 kmh 29.95 in1014.2 mb 0.00 in0.0 mm 0.00 in0.0 mm 0.00 in0.0 mm
05:56 PM 52.0°F11.1°C 47.8°F8.8°C 86% 3.1 mph W5.0 kmh W 5.4 mph8.7 kmh 29.96 in1014.6 mb 0.00 in0.0 mm 0.00 in0.0 mm 0.00 in0.0 mm
05:54 PM 52.0°F11.1°C 47.8°F8.8°C 86% 3.1 mph NW5.0 kmh NW 8.1 mph13.0 kmh 29.95 in1014.2 mb 0.00 in0.0 mm 0.00 in0.0 mm 0.00 in0.0 mm
05:52 PM 52.0°F11.1°C 47.7°F8.7°C 85% 2.2 mph NW3.5 kmh NW 4.3 mph6.9 kmh 29.95 in1014.2 mb 0.00 in0.0 mm 0.00 in0.0 mm 0.00 in0.0 mm
05:50 PM 51.8°F11.0°C 47.5°F8.6°C 85% 2.0 mph NNW3.2 kmh NNW 3.6 mph5.8 kmh 29.96 in1014.6 mb 0.00 in0.0 mm 0.00 in0.0 mm 0.00 in0.0 mm
05:48 PM 51.8°F11.0°C 47.5°F8.6°C 85% 2.5 mph NNW4.0 kmh NNW 5.6 mph9.0 kmh 29.96 in1014.6 mb 0.00 in0.0 mm 0.00 in0.0 mm 0.00 in0.0 mm
05:45 PM 52.0°F11.1°C 47.7°F8.7°C 85% 2.2 mph W3.5 kmh W 4.0 mph6.4 kmh 29.96 in1014.6 mb 0.00 in0.0 mm 0.00 in0.0 mm 0.00 in0.0 mm
05:43 PM 52.0°F11.1°C 47.7°F8.7°C 85% 2.5 mph NW4.0 kmh NW 6.0 mph9.7 kmh 29.95 in1014.2 mb 0.00 in0.0 mm 0.00 in0.0 mm 0.00 in0.0 mm
05:41 PM 51.8°F11.0°C 47.5°F8.6°C 85% 3.1 mph NW5.0 kmh NW 6.0 mph9.7 kmh 29.96 in1014.6 mb 0.00 in0.0 mm 0.00 in0.0 mm 0.00 in0.0 mm
05:39 PM 51.8°F11.0°C 47.5°F8.6°C 85% 2.2 mph WSW3.5 kmh WSW 5.1 mph8.2 kmh 29.96 in1014.6 mb 0.00 in0.0 mm 0.00 in0.0 mm 0.00 in0.0 mm
05:37 PM 52.0°F11.1°C 47.7°F8.7°C 85% 2.7 mph NW4.3 kmh NW 4.0 mph6.4 kmh 29.96 in1014.6 mb 0.00 in0.0 mm 0.00 in0.0 mm 0.00 in0.0 mm
05:34 PM 52.0°F11.1°C 47.7°F8.7°C 85% 3.1 mph WSW5.0 kmh WSW 4.9 mph7.9 kmh 29.96 in1014.6 mb 0.00 in0.0 mm 0.00 in0.0 mm 0.00 in0.0 mm
05:32 PM 52.0°F11.1°C 47.7°F8.7°C 85% 2.9 mph W4.7 kmh W 5.8 mph9.3 kmh 29.96 in1014.6 mb 0.00 in0.0 mm 0.00 in0.0 mm 0.00 in0.0 mm
05:30 PM 52.0°F11.1°C 47.7°F8.7°C 85% 2.7 mph NW4.3 kmh NW 5.8 mph9.3 kmh 29.96 in1014.6 mb 0.00 in0.0 mm 0.00 in0.0 mm 0.00 in0.0 mm
05:28 PM 52.0°F11.1°C 47.7°F8.7°C 85% 2.7 mph WNW4.3 kmh WNW 4.7 mph7.6 kmh 29.96 in1014.6 mb 0.00 in0.0 mm 0.00 in0.0 mm 0.00 in0.0 mm
05:25 PM 52.0°F11.1°C 47.7°F8.7°C 85% 3.4 mph NW5.5 kmh NW 4.7 mph7.6 kmh 29.96 in1014.6 mb 0.00 in0.0 mm 0.00 in0.0 mm 0.00 in0.0 mm
05:23 PM 52.0°F11.1°C 47.7°F8.7°C 85% 4.0 mph WNW6.4 kmh WNW 7.8 mph12.6 kmh 29.96 in1014.6 mb 0.00 in0.0 mm 0.00 in0.0 mm 0.00 in0.0 mm
05:21 PM 52.0°F11.1°C 47.7°F8.7°C 85% 3.1 mph 5.0 kmh 5.8 mph9.3 kmh 29.96 in1014.6 mb 0.00 in0.0 mm 0.00 in0.0 mm 0.00 in0.0 mm
05:19 PM 52.0°F11.1°C 47.7°F8.7°C 85% 3.4 mph NW5.5 kmh NW 4.7 mph7.6 kmh 29.96 in1014.6 mb 0.00 in0.0 mm 0.00 in0.0 mm 0.00 in0.0 mm
05:17 PM 52.0°F11.1°C 47.7°F8.7°C 85% 3.8 mph WNW6.1 kmh WNW 5.8 mph9.3 kmh 29.96 in1014.6 mb 0.00 in0.0 mm 0.00 in0.0 mm 0.00 in0.0 mm
05:15 PM 52.2°F11.2°C 47.8°F8.8°C 85% 5.6 mph W9.0 kmh W 13.6 mph21.9 kmh 29.96 in1014.6 mb 0.00 in0.0 mm 0.00 in0.0 mm 0.00 in0.0 mm
05:12 PM 52.2°F11.2°C 47.8°F8.8°C 85% 4.5 mph W7.2 kmh W 9.2 mph14.8 kmh 29.96 in1014.6 mb 0.00 in0.0 mm 0.00 in0.0 mm 0.00 in0.0 mm
05:10 PM 52.2°F11.2°C 47.8°F8.8°C 85% 5.6 mph NW9.0 kmh NW 10.5 mph16.9 kmh 29.96 in1014.6 mb 0.00 in0.0 mm 0.00 in0.0 mm 0.00 in0.0 mm
05:08 PM 52.0°F11.1°C 47.7°F8.7°C 85% 5.4 mph NNW8.7 kmh NNW 11.4 mph18.3 kmh 29.97 in1014.9 mb 0.00 in0.0 mm 0.00 in0.0 mm 0.00 in0.0 mm
05:06 PM 52.0°F11.1°C 47.7°F8.7°C 85% 6.3 mph NW10.1 kmh NW 12.8 mph20.6 kmh 29.96 in1014.6 mb 0.00 in0.0 mm 0.00 in0.0 mm 0.00 in0.0 mm
05:03 PM 52.0°F11.1°C 47.8°F8.8°C 86% 4.9 mph W7.9 kmh W 5.4 mph8.7 kmh 29.96 in1014.6 mb 0.00 in0.0 mm 0.00 in0.0 mm 0.00 in0.0 mm
05:01 PM 52.0°F11.1°C 47.8°F8.8°C 86% 5.4 mph WSW8.7 kmh WSW 9.4 mph15.1 kmh 29.96 in1014.6 mb 0.00 in0.0 mm 0.00 in0.0 mm 0.00 in0.0 mm
04:59 PM 52.0°F11.1°C 47.8°F8.8°C 86% 4.5 mph WNW7.2 kmh WNW 7.6 mph12.2 kmh 29.96 in1014.6 mb 0.00 in0.0 mm 0.00 in0.0 mm 0.00 in0.0 mm
04:57 PM 52.0°F11.1°C 47.8°F8.8°C 86% 4.3 mph SW6.9 kmh SW 9.6 mph15.4 kmh 29.96 in1014.6 mb 0.00 in0.0 mm 0.00 in0.0 mm 0.00 in0.0 mm
04:54 PM 52.0°F11.1°C 47.8°F8.8°C 86% 4.7 mph WSW7.6 kmh WSW 9.4 mph15.1 kmh 29.96 in1014.6 mb 0.00 in0.0 mm 0.00 in0.0 mm 0.00 in0.0 mm
04:52 PM 52.0°F11.1°C 47.8°F8.8°C 86% 3.6 mph WSW5.8 kmh WSW 7.2 mph11.6 kmh 29.96 in1014.6 mb 0.00 in0.0 mm 0.00 in0.0 mm 0.00 in0.0 mm
04:50 PM 52.0°F11.1°C 47.8°F8.8°C 86% 3.8 mph NW6.1 kmh NW 6.0 mph9.7 kmh 29.96 in1014.6 mb 0.00 in0.0 mm 0.00 in0.0 mm 0.00 in0.0 mm
04:47 PM 52.0°F11.1°C 47.8°F8.8°C 86% 4.3 mph WNW6.9 kmh WNW 8.9 mph14.3 kmh 29.96 in1014.6 mb 0.00 in0.0 mm 0.00 in0.0 mm 0.00 in0.0 mm
04:45 PM 52.0°F11.1°C 47.8°F8.8°C 86% 3.8 mph W6.1 kmh W 10.1 mph16.3 kmh 29.96 in1014.6 mb 0.00 in0.0 mm 0.00 in0.0 mm 0.00 in0.0 mm
04:43 PM 52.0°F11.1°C 47.8°F8.8°C 86% 3.4 mph SSW5.5 kmh SSW 5.8 mph9.3 kmh 29.96 in1014.6 mb 0.00 in0.0 mm 0.00 in0.0 mm 0.00 in0.0 mm
04:41 PM 52.0°F11.1°C 47.8°F8.8°C 86% 3.1 mph W5.0 kmh W 6.0 mph9.7 kmh 29.96 in1014.6 mb 0.00 in0.0 mm 0.00 in0.0 mm 0.00 in0.0 mm
04:39 PM 52.0°F11.1°C 47.8°F8.8°C 86% 2.7 mph W4.3 kmh W 4.0 mph6.4 kmh 29.96 in1014.6 mb 0.00 in0.0 mm 0.00 in0.0 mm 0.00 in0.0 mm
04:36 PM 52.0°F11.1°C 47.8°F8.8°C 86% 3.1 mph W5.0 kmh W 8.1 mph13.0 kmh 29.96 in1014.6 mb 0.00 in0.0 mm 0.00 in0.0 mm 0.00 in0.0 mm
04:34 PM 52.0°F11.1°C 47.8°F8.8°C 86% 3.1 mph WNW5.0 kmh WNW 3.1 mph5.0 kmh 29.96 in1014.6 mb 0.00 in0.0 mm 0.00 in0.0 mm 0.00 in0.0 mm
04:32 PM 52.0°F11.1°C 47.8°F8.8°C 86% 4.3 mph WNW6.9 kmh WNW 7.2 mph11.6 kmh 29.96 in1014.6 mb 0.00 in0.0 mm 0.00 in0.0 mm 0.00 in0.0 mm
04:30 PM 52.0°F11.1°C 47.8°F8.8°C 86% 3.6 mph NNW5.8 kmh NNW 5.4 mph8.7 kmh 29.96 in1014.6 mb 0.00 in0.0 mm 0.00 in0.0 mm 0.00 in0.0 mm
04:27 PM 52.0°F11.1°C 47.8°F8.8°C 86% 3.6 mph WNW5.8 kmh WNW 8.9 mph14.3 kmh 29.96 in1014.6 mb 0.00 in0.0 mm 0.00 in0.0 mm 0.00 in0.0 mm
04:25 PM 52.0°F11.1°C 47.8°F8.8°C 86% 3.8 mph NW6.1 kmh NW 9.2 mph14.8 kmh 29.96 in1014.6 mb 0.00 in0.0 mm 0.00 in0.0 mm 0.00 in0.0 mm
04:23 PM 52.2°F11.2°C 48.0°F8.9°C 86% 3.1 mph W5.0 kmh W 7.2 mph11.6 kmh 29.95 in1014.2 mb 0.00 in0.0 mm 0.00 in0.0 mm 0.00 in0.0 mm
04:21 PM 52.2°F11.2°C 48.0°F8.9°C 86% 3.4 mph NW5.5 kmh NW 7.2 mph11.6 kmh 29.95 in1014.2 mb 0.00 in0.0 mm 0.00 in0.0 mm 0.00 in0.0 mm
04:19 PM 52.2°F11.2°C 47.8°F8.8°C 85% 3.4 mph SSE5.5 kmh SSE 6.0 mph9.7 kmh 29.95 in1014.2 mb 0.00 in0.0 mm 0.00 in0.0 mm 0.00 in0.0 mm
04:16 PM 52.2°F11.2°C 47.8°F8.8°C 85% 3.1 mph ESE5.0 kmh ESE 4.9 mph7.9 kmh 29.96 in1014.6 mb 0.00 in0.0 mm 0.00 in0.0 mm 0.00 in0.0 mm
04:14 PM 52.2°F11.2°C 47.8°F8.8°C 85% 2.9 mph WNW4.7 kmh WNW 3.8 mph6.1 kmh 29.96 in1014.6 mb 0.00 in0.0 mm 0.00 in0.0 mm 0.00 in0.0 mm
04:12 PM 52.3°F11.3°C 48.0°F8.9°C 85% 3.8 mph WNW6.1 kmh WNW 9.2 mph14.8 kmh 29.96 in1014.6 mb 0.00 in0.0 mm 0.00 in0.0 mm 0.00 in0.0 mm
04:10 PM 52.3°F11.3°C 48.0°F8.9°C 85% 1.8 mph WNW2.9 kmh WNW 2.7 mph4.3 kmh 29.96 in1014.6 mb 0.00 in0.0 mm 0.00 in0.0 mm 0.00 in0.0 mm
04:08 PM 52.3°F11.3°C 48.0°F8.9°C 85% 2.2 mph W3.5 kmh W 4.3 mph6.9 kmh 29.96 in1014.6 mb 0.00 in0.0 mm 0.00 in0.0 mm 0.00 in0.0 mm
04:06 PM 52.2°F11.2°C 47.8°F8.8°C 85% 1.8 mph W2.9 kmh W 4.7 mph7.6 kmh 29.96 in1014.6 mb 0.00 in0.0 mm 0.00 in0.0 mm 0.00 in0.0 mm
04:03 PM 52.3°F11.3°C 48.0°F8.9°C 85% 2.5 mph ENE4.0 kmh ENE 4.0 mph6.4 kmh 29.96 in1014.6 mb 0.00 in0.0 mm 0.00 in0.0 mm 0.00 in0.0 mm
04:01 PM 52.3°F11.3°C 48.0°F8.9°C 85% 2.7 mph NW4.3 kmh NW 6.3 mph10.1 kmh 29.96 in1014.6 mb 0.00 in0.0 mm 0.00 in0.0 mm 0.00 in0.0 mm
03:59 PM 52.2°F11.2°C 47.8°F8.8°C 85% 2.7 mph SSW4.3 kmh SSW 7.2 mph11.6 kmh 29.96 in1014.6 mb 0.00 in0.0 mm 0.00 in0.0 mm 0.00 in0.0 mm
03:57 PM 52.3°F11.3°C 48.0°F8.9°C 85% 2.9 mph W4.7 kmh W 4.5 mph7.2 kmh 29.97 in1014.9 mb 0.00 in0.0 mm 0.00 in0.0 mm 0.00 in0.0 mm
03:55 PM 52.3°F11.3°C 48.0°F8.9°C 85% 3.1 mph S5.0 kmh S 4.7 mph7.6 kmh 29.96 in1014.6 mb 0.00 in0.0 mm 0.00 in0.0 mm 0.00 in0.0 mm
03:53 PM 52.3°F11.3°C 48.2°F9.0°C 86% 2.9 mph SW4.7 kmh SW 4.3 mph6.9 kmh 29.97 in1014.9 mb 0.00 in0.0 mm 0.00 in0.0 mm 0.00 in0.0 mm
03:51 PM 52.2°F11.2°C 48.0°F8.9°C 86% 3.1 mph NW5.0 kmh NW 5.8 mph9.3 kmh 29.97 in1014.9 mb 0.00 in0.0 mm 0.00 in0.0 mm 0.00 in0.0 mm
03:49 PM 52.2°F11.2°C 48.0°F8.9°C 86% 2.5 mph NNE4.0 kmh NNE 6.0 mph9.7 kmh 29.97 in1014.9 mb 0.00 in0.0 mm 0.00 in0.0 mm 0.00 in0.0 mm
03:47 PM 52.3°F11.3°C 48.2°F9.0°C 86% 2.9 mph W4.7 kmh W 5.1 mph8.2 kmh 29.97 in1014.9 mb 0.00 in0.0 mm 0.00 in0.0 mm 0.00 in0.0 mm
03:44 PM 52.3°F11.3°C 48.2°F9.0°C 86% 3.1 mph NW5.0 kmh NW 4.3 mph6.9 kmh 29.97 in1014.9 mb 0.00 in0.0 mm 0.00 in0.0 mm 0.00 in0.0 mm
03:42 PM 52.3°F11.3°C 48.2°F9.0°C 86% 4.0 mph WNW6.4 kmh WNW 6.9 mph11.1 kmh 29.97 in1014.9 mb 0.00 in0.0 mm 0.00 in0.0 mm 0.00 in0.0 mm
03:40 PM 52.3°F11.3°C 48.2°F9.0°C 86% 5.1 mph WNW8.2 kmh WNW 10.1 mph16.3 kmh 29.97 in1014.9 mb 0.00 in0.0 mm 0.00 in0.0 mm 0.00 in0.0 mm
03:38 PM 52.3°F11.3°C 48.2°F9.0°C 86% 4.3 mph WNW6.9 kmh WNW 3.8 mph6.1 kmh 29.97 in1014.9 mb 0.00 in0.0 mm 0.00 in0.0 mm 0.00 in0.0 mm
03:36 PM 52.3°F11.3°C 48.2°F9.0°C 86% 5.1 mph ENE8.2 kmh ENE 11.0 mph17.7 kmh 29.97 in1014.9 mb 0.00 in0.0 mm 0.00 in0.0 mm 0.00 in0.0 mm
03:34 PM 52.2°F11.2°C 48.4°F9.1°C 87% 6.0 mph SW9.7 kmh SW 10.1 mph16.3 kmh 29.97 in1014.9 mb 0.00 in0.0 mm 0.00 in0.0 mm 0.00 in0.0 mm
03:31 PM 52.2°F11.2°C 48.4°F9.1°C 87% 5.8 mph NW9.3 kmh NW 12.1 mph19.5 kmh 29.97 in1014.9 mb 0.00 in0.0 mm 0.00 in0.0 mm 0.00 in0.0 mm
03:29 PM 52.3°F11.3°C 48.6°F9.2°C 87% 4.7 mph NE7.6 kmh NE 8.9 mph14.3 kmh 29.98 in1015.2 mb 0.00 in0.0 mm 0.00 in0.0 mm 0.00 in0.0 mm
03:27 PM 52.3°F11.3°C 48.6°F9.2°C 87% 4.0 mph WNW6.4 kmh WNW 6.9 mph11.1 kmh 29.98 in1015.2 mb 0.00 in0.0 mm 0.00 in0.0 mm 0.00 in0.0 mm
03:25 PM 52.3°F11.3°C 48.6°F9.2°C 87% 3.1 mph 5.0 kmh 9.2 mph14.8 kmh 29.98 in1015.2 mb 0.00 in0.0 mm 0.00 in0.0 mm 0.00 in0.0 mm
03:23 PM 52.3°F11.3°C 48.6°F9.2°C 87% 3.1 mph W5.0 kmh W 4.5 mph7.2 kmh 29.98 in1015.2 mb 0.00 in0.0 mm 0.00 in0.0 mm 0.00 in0.0 mm
03:20 PM 52.3°F11.3°C 48.6°F9.2°C 87% 3.1 mph ENE5.0 kmh ENE 4.7 mph7.6 kmh 29.98 in1015.2 mb 0.00 in0.0 mm 0.00 in0.0 mm 0.00 in0.0 mm
03:18 PM 52.3°F11.3°C 48.6°F9.2°C 87% 3.6 mph WNW5.8 kmh WNW 4.9 mph7.9 kmh 29.98 in1015.2 mb 0.00 in0.0 mm 0.00 in0.0 mm 0.00 in0.0 mm
03:16 PM 52.3°F11.3°C 48.6°F9.2°C 87% 4.9 mph WNW7.9 kmh WNW 8.9 mph14.3 kmh 29.98 in1015.2 mb 0.00 in0.0 mm 0.00 in0.0 mm 0.00 in0.0 mm
03:14 PM 52.3°F11.3°C 48.6°F9.2°C 87% 4.7 mph W7.6 kmh W 6.3 mph10.1 kmh 29.98 in1015.2 mb 0.00 in0.0 mm 0.00 in0.0 mm 0.00 in0.0 mm
03:12 PM 52.2°F11.2°C 48.4°F9.1°C 87% 4.7 mph WSW7.6 kmh WSW 7.8 mph12.6 kmh 29.98 in1015.2 mb 0.00 in0.0 mm 0.00 in0.0 mm 0.00 in0.0 mm
03:09 PM 52.3°F11.3°C 48.6°F9.2°C 87% 3.8 mph W6.1 kmh W 8.9 mph14.3 kmh 29.98 in1015.2 mb 0.00 in0.0 mm 0.00 in0.0 mm 0.00 in0.0 mm
03:07 PM 52.2°F11.2°C 48.4°F9.1°C 87% 4.3 mph WNW6.9 kmh WNW 7.6 mph12.2 kmh 29.98 in1015.2 mb 0.00 in0.0 mm 0.00 in0.0 mm 0.00 in0.0 mm
03:05 PM 52.2°F11.2°C 48.4°F9.1°C 87% 3.8 mph S6.1 kmh S 8.1 mph13.0 kmh 29.97 in1014.9 mb 0.00 in0.0 mm 0.00 in0.0 mm 0.00 in0.0 mm
03:03 PM 52.0°F11.1°C 48.2°F9.0°C 87% 3.6 mph WNW5.8 kmh WNW 6.5 mph10.5 kmh 29.98 in1015.2 mb 0.00 in0.0 mm 0.00 in0.0 mm 0.00 in0.0 mm
03:00 PM 52.2°F11.2°C 48.4°F9.1°C 87% 2.0 mph NW3.2 kmh NW 4.9 mph7.9 kmh 29.97 in1014.9 mb 0.00 in0.0 mm 0.00 in0.0 mm 0.00 in0.0 mm
02:58 PM 52.0°F11.1°C 48.2°F9.0°C 87% 2.5 mph NNW4.0 kmh NNW 3.8 mph6.1 kmh 29.98 in1015.2 mb 0.00 in0.0 mm 0.00 in0.0 mm 0.00 in0.0 mm
02:56 PM 52.0°F11.1°C 48.2°F9.0°C 87% 3.4 mph SSE5.5 kmh SSE 5.1 mph8.2 kmh 29.98 in1015.2 mb 0.00 in0.0 mm 0.00 in0.0 mm 0.00 in0.0 mm
02:54 PM 52.0°F11.1°C 48.2°F9.0°C 87% 3.6 mph SW5.8 kmh SW 7.2 mph11.6 kmh 29.98 in1015.2 mb 0.00 in0.0 mm 0.00 in0.0 mm 0.00 in0.0 mm
02:52 PM 52.0°F11.1°C 48.2°F9.0°C 87% 2.2 mph WSW3.5 kmh WSW 5.1 mph8.2 kmh 29.98 in1015.2 mb 0.00 in0.0 mm 0.00 in0.0 mm 0.00 in0.0 mm
02:50 PM 52.0°F11.1°C 48.2°F9.0°C 87% 2.7 mph 4.3 kmh 5.8 mph9.3 kmh 29.98 in1015.2 mb 0.00 in0.0 mm 0.00 in0.0 mm 0.00 in0.0 mm
02:47 PM 52.0°F11.1°C 48.2°F9.0°C 87% 2.2 mph SW3.5 kmh SW 5.1 mph8.2 kmh 29.98 in1015.2 mb 0.00 in0.0 mm 0.00 in0.0 mm 0.00 in0.0 mm
02:45 PM 52.0°F11.1°C 48.2°F9.0°C 87% 2.5 mph W4.0 kmh W 2.7 mph4.3 kmh 29.98 in1015.2 mb 0.00 in0.0 mm 0.00 in0.0 mm 0.00 in0.0 mm
02:43 PM 52.0°F11.1°C 48.2°F9.0°C 87% 3.8 mph W6.1 kmh W 8.9 mph14.3 kmh 29.98 in1015.2 mb 0.00 in0.0 mm 0.00 in0.0 mm 0.00 in0.0 mm
02:40 PM 52.0°F11.1°C 48.2°F9.0°C 87% 2.2 mph W3.5 kmh W 4.7 mph7.6 kmh 29.98 in1015.2 mb 0.00 in0.0 mm 0.00 in0.0 mm 0.00 in0.0 mm
02:38 PM 51.8°F11.0°C 48.0°F8.9°C 87% 2.2 mph W3.5 kmh W 4.0 mph6.4 kmh 29.98 in1015.2 mb 0.00 in0.0 mm 0.00 in0.0 mm 0.00 in0.0 mm
02:36 PM 52.0°F11.1°C 48.2°F9.0°C 87% 2.7 mph WNW4.3 kmh WNW 5.1 mph8.2 kmh 29.98 in1015.2 mb 0.00 in0.0 mm 0.00 in0.0 mm 0.00 in0.0 mm
02:34 PM 52.0°F11.1°C 48.2°F9.0°C 87% 2.5 mph NW4.0 kmh NW 5.4 mph8.7 kmh 29.98 in1015.2 mb 0.00 in0.0 mm 0.00 in0.0 mm 0.00 in0.0 mm
02:32 PM 52.0°F11.1°C 48.2°F9.0°C 87% 2.5 mph W4.0 kmh W 4.5 mph7.2 kmh 29.98 in1015.2 mb 0.00 in0.0 mm 0.00 in0.0 mm 0.00 in0.0 mm
02:30 PM 52.0°F11.1°C 48.2°F9.0°C 87% 2.7 mph WNW4.3 kmh WNW 3.1 mph5.0 kmh 29.98 in1015.2 mb 0.00 in0.0 mm 0.00 in0.0 mm 0.00 in0.0 mm
02:27 PM 52.0°F11.1°C 47.8°F8.8°C 86% 3.1 mph W5.0 kmh W 5.1 mph8.2 kmh 29.98 in1015.2 mb 0.00 in0.0 mm 0.00 in0.0 mm 0.00 in0.0 mm
02:25 PM 51.8°F11.0°C 47.7°F8.7°C 86% 2.9 mph S4.7 kmh S 5.4 mph8.7 kmh 29.99 in1015.6 mb 0.00 in0.0 mm 0.00 in0.0 mm 0.00 in0.0 mm
02:23 PM 52.0°F11.1°C 47.8°F8.8°C 86% 2.7 mph NNW4.3 kmh NNW 6.3 mph10.1 kmh 29.99 in1015.6 mb 0.00 in0.0 mm 0.00 in0.0 mm 0.00 in0.0 mm
02:21 PM 51.8°F11.0°C 47.7°F8.7°C 86% 1.8 mph W2.9 kmh W 2.5 mph4.0 kmh 30.00 in1015.9 mb 0.00 in0.0 mm 0.00 in0.0 mm 0.00 in0.0 mm
02:18 PM 51.8°F11.0°C 47.7°F8.7°C 86% 2.7 mph W4.3 kmh W 5.1 mph8.2 kmh 30.00 in1015.9 mb 0.00 in0.0 mm 0.00 in0.0 mm 0.00 in0.0 mm
02:16 PM 52.0°F11.1°C 47.8°F8.8°C 86% 3.4 mph NNE5.5 kmh NNE 5.4 mph8.7 kmh 30.00 in1015.9 mb 0.00 in0.0 mm 0.00 in0.0 mm 0.00 in0.0 mm
02:14 PM 52.0°F11.1°C 47.8°F8.8°C 86% 3.6 mph NW5.8 kmh NW 15.0 mph24.1 kmh 30.01 in1016.3 mb 0.00 in0.0 mm 0.00 in0.0 mm 0.00 in0.0 mm
02:12 PM 52.0°F11.1°C 47.8°F8.8°C 86% 2.5 mph W4.0 kmh W 5.8 mph9.3 kmh 30.01 in1016.3 mb 0.00 in0.0 mm 0.00 in0.0 mm 0.00 in0.0 mm
02:09 PM 52.0°F11.1°C 47.8°F8.8°C 86% 3.4 mph W5.5 kmh W 5.8 mph9.3 kmh 30.01 in1016.3 mb 0.00 in0.0 mm 0.00 in0.0 mm 0.00 in0.0 mm
02:07 PM 52.0°F11.1°C 47.8°F8.8°C 86% 2.7 mph NNW4.3 kmh NNW 2.9 mph4.7 kmh 30.02 in1016.6 mb 0.00 in0.0 mm 0.00 in0.0 mm 0.00 in0.0 mm
02:05 PM 52.0°F11.1°C 47.8°F8.8°C 86% 3.8 mph NNW6.1 kmh NNW 5.4 mph8.7 kmh 30.02 in1016.6 mb 0.00 in0.0 mm 0.00 in0.0 mm 0.00 in0.0 mm
02:03 PM 52.0°F11.1°C 47.8°F8.8°C 86% 4.0 mph WNW6.4 kmh WNW 7.6 mph12.2 kmh 30.02 in1016.6 mb 0.00 in0.0 mm 0.00 in0.0 mm 0.00 in0.0 mm
02:00 PM 52.2°F11.2°C 47.8°F8.8°C 85% 3.8 mph W6.1 kmh W 5.4 mph8.7 kmh 30.02 in1016.6 mb 0.00 in0.0 mm 0.00 in0.0 mm 0.00 in0.0 mm
01:58 PM 52.2°F11.2°C 47.8°F8.8°C 85% 5.1 mph WNW8.2 kmh WNW 9.2 mph14.8 kmh 30.02 in1016.6 mb 0.00 in0.0 mm 0.00 in0.0 mm 0.00 in0.0 mm
01:56 PM 52.2°F11.2°C 47.8°F8.8°C 85% 3.8 mph WNW6.1 kmh WNW 6.7 mph10.8 kmh 30.02 in1016.6 mb 0.00 in0.0 mm 0.00 in0.0 mm 0.00 in0.0 mm
01:54 PM 52.3°F11.3°C 48.0°F8.9°C 85% 3.8 mph 6.1 kmh 7.4 mph11.9 kmh 30.02 in1016.6 mb 0.00 in0.0 mm 0.00 in0.0 mm 0.00 in0.0 mm
01:52 PM 52.3°F11.3°C 48.0°F8.9°C 85% 4.3 mph WSW6.9 kmh WSW 4.9 mph7.9 kmh 30.02 in1016.6 mb 0.00 in0.0 mm 0.00 in0.0 mm 0.00 in0.0 mm
01:49 PM 52.3°F11.3°C 47.7°F8.7°C 84% 4.3 mph W6.9 kmh W 8.3 mph13.4 kmh 30.02 in1016.6 mb 0.00 in0.0 mm 0.00 in0.0 mm 0.00 in0.0 mm
01:47 PM 52.5°F11.4°C 47.8°F8.8°C 84% 3.1 mph NW5.0 kmh NW 6.9 mph11.1 kmh 30.01 in1016.3 mb 0.00 in0.0 mm 0.00 in0.0 mm 0.00 in0.0 mm
01:45 PM 52.5°F11.4°C 47.8°F8.8°C 84% 2.5 mph W4.0 kmh W 4.9 mph7.9 kmh 30.02 in1016.6 mb 0.00 in0.0 mm 0.00 in0.0 mm 0.00 in0.0 mm
01:43 PM 52.5°F11.4°C 47.8°F8.8°C 84% 2.7 mph WNW4.3 kmh WNW 3.1 mph5.0 kmh 30.02 in1016.6 mb 0.00 in0.0 mm 0.00 in0.0 mm 0.00 in0.0 mm
01:41 PM 52.5°F11.4°C 47.5°F8.6°C 83% 4.0 mph WNW6.4 kmh WNW 8.1 mph13.0 kmh 30.02 in1016.6 mb 0.00 in0.0 mm 0.00 in0.0 mm 0.00 in0.0 mm
01:38 PM 52.5°F11.4°C 47.5°F8.6°C 83% 5.4 mph WNW8.7 kmh WNW 6.9 mph11.1 kmh 30.03 in1016.9 mb 0.00 in0.0 mm 0.00 in0.0 mm 0.00 in0.0 mm
01:36 PM 52.7°F11.5°C 47.7°F8.7°C 83% 6.5 mph W10.5 kmh W 14.3 mph23.0 kmh 30.02 in1016.6 mb 0.00 in0.0 mm 0.00 in0.0 mm 0.00 in0.0 mm
01:34 PM 52.5°F11.4°C 47.5°F8.6°C 83% 6.0 mph 9.7 kmh 11.9 mph19.2 kmh 30.02 in1016.6 mb 0.00 in0.0 mm 0.00 in0.0 mm 0.00 in0.0 mm
01:32 PM 52.7°F11.5°C 47.7°F8.7°C 83% 6.7 mph W10.8 kmh W 14.5 mph23.3 kmh 30.02 in1016.6 mb 0.00 in0.0 mm 0.00 in0.0 mm 0.00 in0.0 mm
01:30 PM 52.7°F11.5°C 47.7°F8.7°C 83% 4.9 mph 7.9 kmh 9.6 mph15.4 kmh 30.02 in1016.6 mb 0.00 in0.0 mm 0.00 in0.0 mm 0.00 in0.0 mm
01:27 PM 52.7°F11.5°C 47.7°F8.7°C 83% 3.8 mph NW6.1 kmh NW 4.9 mph7.9 kmh 30.03 in1016.9 mb 0.00 in0.0 mm 0.00 in0.0 mm 0.00 in0.0 mm
01:25 PM 52.7°F11.5°C 47.7°F8.7°C 83% 5.4 mph NE8.7 kmh NE 7.2 mph11.6 kmh 30.03 in1016.9 mb 0.00 in0.0 mm 0.00 in0.0 mm 0.00 in0.0 mm
01:23 PM 52.7°F11.5°C 47.7°F8.7°C 83% 6.7 mph NW10.8 kmh NW 11.9 mph19.2 kmh 30.02 in1016.6 mb 0.00 in0.0 mm 0.00 in0.0 mm 0.00 in0.0 mm
01:21 PM 52.5°F11.4°C 47.5°F8.6°C 83% 6.0 mph NE9.7 kmh NE 7.6 mph12.2 kmh 30.03 in1016.9 mb 0.00 in0.0 mm 0.00 in0.0 mm 0.00 in0.0 mm
01:19 PM 52.5°F11.4°C 47.5°F8.6°C 83% 7.4 mph SSW11.9 kmh SSW 11.9 mph19.2 kmh 30.02 in1016.6 mb 0.00 in0.0 mm 0.00 in0.0 mm 0.00 in0.0 mm
01:16 PM 52.5°F11.4°C 47.5°F8.6°C 83% 6.3 mph WSW10.1 kmh WSW 10.3 mph16.6 kmh 30.03 in1016.9 mb 0.00 in0.0 mm 0.00 in0.0 mm 0.00 in0.0 mm
01:14 PM 52.7°F11.5°C 47.7°F8.7°C 83% 6.5 mph WSW10.5 kmh WSW 15.0 mph24.1 kmh 30.03 in1016.9 mb 0.00 in0.0 mm 0.00 in0.0 mm 0.00 in0.0 mm
01:12 PM 52.7°F11.5°C 47.7°F8.7°C 83% 7.6 mph WNW12.2 kmh WNW 15.0 mph24.1 kmh 30.03 in1016.9 mb 0.00 in0.0 mm 0.00 in0.0 mm 0.00 in0.0 mm
01:10 PM 52.7°F11.5°C 47.7°F8.7°C 83% 5.6 mph WNW9.0 kmh WNW 13.4 mph21.6 kmh 30.03 in1016.9 mb 0.00 in0.0 mm 0.00 in0.0 mm 0.00 in0.0 mm
01:08 PM 52.7°F11.5°C 47.7°F8.7°C 83% 7.2 mph W11.6 kmh W 13.9 mph22.4 kmh 30.03 in1016.9 mb 0.00 in0.0 mm 0.00 in0.0 mm 0.00 in0.0 mm
01:05 PM 52.7°F11.5°C 47.7°F8.7°C 83% 7.6 mph NW12.2 kmh NW 15.0 mph24.1 kmh 30.03 in1016.9 mb 0.00 in0.0 mm 0.00 in0.0 mm 0.00 in0.0 mm
01:03 PM 52.7°F11.5°C 47.7°F8.7°C 83% 6.5 mph WSW10.5 kmh WSW 10.5 mph16.9 kmh 30.03 in1016.9 mb 0.00 in0.0 mm 0.00 in0.0 mm 0.00 in0.0 mm
01:01 PM 52.9°F11.6°C 47.8°F8.8°C 83% 6.0 mph NW9.7 kmh NW 16.3 mph26.2 kmh 30.03 in1016.9 mb 0.00 in0.0 mm 0.00 in0.0 mm 0.00 in0.0 mm
12:59 PM 52.9°F11.6°C 47.8°F8.8°C 83% 5.6 mph W9.0 kmh W 9.8 mph15.8 kmh 30.03 in1016.9 mb 0.00 in0.0 mm 0.00 in0.0 mm 0.00 in0.0 mm
12:57 PM 52.7°F11.5°C 47.3°F8.5°C 82% 6.7 mph 10.8 kmh 14.3 mph23.0 kmh 30.03 in1016.9 mb 0.00 in0.0 mm 0.00 in0.0 mm 0.00 in0.0 mm
12:55 PM 52.9°F11.6°C 47.5°F8.6°C 82% 6.0 mph WNW9.7 kmh WNW 8.9 mph14.3 kmh 30.03 in1016.9 mb 0.00 in0.0 mm 0.00 in0.0 mm 0.00 in0.0 mm
12:52 PM 52.9°F11.6°C 47.5°F8.6°C 82% 5.8 mph W9.3 kmh W 11.4 mph18.3 kmh 30.03 in1016.9 mb 0.00 in0.0 mm 0.00 in0.0 mm 0.00 in0.0 mm
12:50 PM 52.9°F11.6°C 47.5°F8.6°C 82% 5.4 mph 8.7 kmh 7.6 mph12.2 kmh 30.03 in1016.9 mb 0.00 in0.0 mm 0.00 in0.0 mm 0.00 in0.0 mm
12:48 PM 52.9°F11.6°C 47.5°F8.6°C 82% 5.6 mph NNW9.0 kmh NNW 12.8 mph20.6 kmh 30.03 in1016.9 mb 0.00 in0.0 mm 0.00 in0.0 mm 0.00 in0.0 mm
12:46 PM 52.7°F11.5°C 47.3°F8.5°C 82% 5.8 mph WSW9.3 kmh WSW 7.6 mph12.2 kmh 30.03 in1016.9 mb 0.00 in0.0 mm 0.00 in0.0 mm 0.00 in0.0 mm
12:44 PM 52.7°F11.5°C 47.3°F8.5°C 82% 6.5 mph W10.5 kmh W 12.5 mph20.1 kmh 30.03 in1016.9 mb 0.00 in0.0 mm 0.00 in0.0 mm 0.00 in0.0 mm
12:41 PM 52.7°F11.5°C 47.3°F8.5°C 82% 6.3 mph W10.1 kmh W 8.9 mph14.3 kmh 30.03 in1016.9 mb 0.00 in0.0 mm 0.00 in0.0 mm 0.00 in0.0 mm
12:39 PM 52.9°F11.6°C 47.5°F8.6°C 82% 6.0 mph NW9.7 kmh NW 9.2 mph14.8 kmh 30.03 in1016.9 mb 0.00 in0.0 mm 0.00 in0.0 mm 0.00 in0.0 mm
12:37 PM 52.7°F11.5°C 47.3°F8.5°C 82% 7.2 mph W11.6 kmh W 11.9 mph19.2 kmh 30.03 in1016.9 mb 0.00 in0.0 mm 0.00 in0.0 mm 0.00 in0.0 mm
12:35 PM 52.7°F11.5°C 47.3°F8.5°C 82% 6.9 mph WNW11.1 kmh WNW 14.3 mph23.0 kmh 30.03 in1016.9 mb 0.00 in0.0 mm 0.00 in0.0 mm 0.00 in0.0 mm
12:32 PM 52.7°F11.5°C 47.1°F8.4°C 81% 7.4 mph WSW11.9 kmh WSW 14.1 mph22.7 kmh 30.03 in1016.9 mb 0.00 in0.0 mm 0.00 in0.0 mm 0.00 in0.0 mm
12:30 PM 52.7°F11.5°C 47.1°F8.4°C 81% 6.7 mph W10.8 kmh W 18.1 mph29.1 kmh 30.03 in1016.9 mb 0.00 in0.0 mm 0.00 in0.0 mm 0.00 in0.0 mm
12:28 PM 52.9°F11.6°C 47.3°F8.5°C 81% 7.4 mph WNW11.9 kmh WNW 11.9 mph19.2 kmh 30.03 in1016.9 mb 0.00 in0.0 mm 0.00 in0.0 mm 0.00 in0.0 mm
12:26 PM 52.9°F11.6°C 47.3°F8.5°C 81% 7.4 mph WNW11.9 kmh WNW 12.8 mph20.6 kmh 30.03 in1016.9 mb 0.00 in0.0 mm 0.00 in0.0 mm 0.00 in0.0 mm
12:24 PM 52.9°F11.6°C 46.9°F8.3°C 80% 8.1 mph WNW13.0 kmh WNW 13.0 mph20.9 kmh 30.03 in1016.9 mb 0.00 in0.0 mm 0.00 in0.0 mm 0.00 in0.0 mm
12:22 PM 52.9°F11.6°C 46.9°F8.3°C 80% 6.9 mph SW11.1 kmh SW 10.5 mph16.9 kmh 30.03 in1016.9 mb 0.00 in0.0 mm 0.00 in0.0 mm 0.00 in0.0 mm
12:20 PM 52.9°F11.6°C 46.9°F8.3°C 80% 7.4 mph W11.9 kmh W 12.3 mph19.8 kmh 30.03 in1016.9 mb 0.00 in0.0 mm 0.00 in0.0 mm 0.00 in0.0 mm
12:17 PM 52.9°F11.6°C 46.9°F8.3°C 80% 6.7 mph NW10.8 kmh NW 12.1 mph19.5 kmh 30.03 in1016.9 mb 0.00 in0.0 mm 0.00 in0.0 mm 0.00 in0.0 mm
12:15 PM 52.9°F11.6°C 46.6°F8.1°C 79% 7.2 mph W11.6 kmh W 9.8 mph15.8 kmh 30.03 in1016.9 mb 0.00 in0.0 mm 0.00 in0.0 mm 0.00 in0.0 mm
12:13 PM 52.9°F11.6°C 46.6°F8.1°C 79% 9.2 mph W14.8 kmh W 15.2 mph24.5 kmh 30.03 in1016.9 mb 0.00 in0.0 mm 0.00 in0.0 mm 0.00 in0.0 mm
12:11 PM 52.9°F11.6°C 46.9°F8.3°C 80% 8.9 mph WSW14.3 kmh WSW 22.8 mph36.7 kmh 30.03 in1016.9 mb 0.00 in0.0 mm 0.00 in0.0 mm 0.00 in0.0 mm
12:08 PM 52.9°F11.6°C 46.9°F8.3°C 80% 6.5 mph W10.5 kmh W 10.1 mph16.3 kmh 30.03 in1016.9 mb 0.00 in0.0 mm 0.00 in0.0 mm 0.00 in0.0 mm
12:06 PM 52.9°F11.6°C 46.9°F8.3°C 80% 6.5 mph WSW10.5 kmh WSW 8.9 mph14.3 kmh 30.03 in1016.9 mb 0.00 in0.0 mm 0.00 in0.0 mm 0.00 in0.0 mm
12:04 PM 52.9°F11.6°C 46.9°F8.3°C 80% 6.7 mph E10.8 kmh E 15.2 mph24.5 kmh 30.03 in1016.9 mb 0.00 in0.0 mm 0.00 in0.0 mm 0.00 in0.0 mm
12:02 PM 52.9°F11.6°C 46.9°F8.3°C 80% 6.7 mph W10.8 kmh W 12.5 mph20.1 kmh 30.03 in1016.9 mb 0.00 in0.0 mm 0.00 in0.0 mm 0.00 in0.0 mm
11:59 AM 52.9°F11.6°C 46.9°F8.3°C 80% 6.3 mph NW10.1 kmh NW 9.6 mph15.4 kmh 30.03 in1016.9 mb 0.00 in0.0 mm 0.00 in0.0 mm 0.00 in0.0 mm
11:57 AM 52.9°F11.6°C 46.9°F8.3°C 80% 6.3 mph W10.1 kmh W 13.9 mph22.4 kmh 30.03 in1016.9 mb 0.00 in0.0 mm 0.00 in0.0 mm 0.00 in0.0 mm
11:55 AM 52.9°F11.6°C 46.9°F8.3°C 80% 6.3 mph WSW10.1 kmh WSW 10.5 mph16.9 kmh 30.03 in1016.9 mb 0.00 in0.0 mm 0.00 in0.0 mm 0.00 in0.0 mm
11:53 AM 52.9°F11.6°C 46.9°F8.3°C 80% 5.8 mph NW9.3 kmh NW 8.5 mph13.7 kmh 30.03 in1016.9 mb 0.00 in0.0 mm 0.00 in0.0 mm 0.00 in0.0 mm
11:51 AM 52.9°F11.6°C 46.9°F8.3°C 80% 5.8 mph WNW9.3 kmh WNW 8.9 mph14.3 kmh 30.03 in1016.9 mb 0.00 in0.0 mm 0.00 in0.0 mm 0.00 in0.0 mm
11:49 AM 52.9°F11.6°C 46.9°F8.3°C 80% 6.9 mph NW11.1 kmh NW 14.3 mph23.0 kmh 30.03 in1016.9 mb 0.00 in0.0 mm 0.00 in0.0 mm 0.00 in0.0 mm
11:47 AM 52.9°F11.6°C 47.3°F8.5°C 81% 5.6 mph NNW9.0 kmh NNW 11.4 mph18.3 kmh 30.03 in1016.9 mb 0.00 in0.0 mm 0.00 in0.0 mm 0.00 in0.0 mm
11:45 AM 52.7°F11.5°C 47.1°F8.4°C 81% 4.9 mph NW7.9 kmh NW 6.7 mph10.8 kmh 30.03 in1016.9 mb 0.00 in0.0 mm 0.00 in0.0 mm 0.00 in0.0 mm
11:42 AM 52.7°F11.5°C 47.1°F8.4°C 81% 4.9 mph WNW7.9 kmh WNW 8.1 mph13.0 kmh 30.03 in1016.9 mb 0.00 in0.0 mm 0.00 in0.0 mm 0.00 in0.0 mm
11:40 AM 52.7°F11.5°C 47.1°F8.4°C 81% 5.4 mph W8.7 kmh W 9.4 mph15.1 kmh 30.04 in1017.3 mb 0.00 in0.0 mm 0.00 in0.0 mm 0.00 in0.0 mm
11:38 AM 52.5°F11.4°C 46.9°F8.3°C 81% 5.1 mph NNE8.2 kmh NNE 8.7 mph14.0 kmh 30.04 in1017.3 mb 0.00 in0.0 mm 0.00 in0.0 mm 0.00 in0.0 mm
11:36 AM 52.5°F11.4°C 46.9°F8.3°C 81% 6.0 mph WSW9.7 kmh WSW 11.4 mph18.3 kmh 30.04 in1017.3 mb 0.00 in0.0 mm 0.00 in0.0 mm 0.00 in0.0 mm
11:34 AM 52.5°F11.4°C 46.9°F8.3°C 81% 5.8 mph 9.3 kmh 14.3 mph23.0 kmh 30.04 in1017.3 mb 0.00 in0.0 mm 0.00 in0.0 mm 0.00 in0.0 mm
11:31 AM 52.5°F11.4°C 46.9°F8.3°C 81% 5.4 mph WSW8.7 kmh WSW 8.5 mph13.7 kmh 30.04 in1017.3 mb 0.00 in0.0 mm 0.00 in0.0 mm 0.00 in0.0 mm
11:29 AM 52.5°F11.4°C 46.9°F8.3°C 81% 6.0 mph W9.7 kmh W 8.5 mph13.7 kmh 30.04 in1017.3 mb 0.00 in0.0 mm 0.00 in0.0 mm 0.00 in0.0 mm
11:27 AM 52.5°F11.4°C 46.9°F8.3°C 81% 6.5 mph WNW10.5 kmh WNW 10.5 mph16.9 kmh 30.03 in1016.9 mb 0.00 in0.0 mm 0.00 in0.0 mm 0.00 in0.0 mm
11:25 AM 52.5°F11.4°C 46.9°F8.3°C 81% 7.2 mph W11.6 kmh W 10.5 mph16.9 kmh 30.04 in1017.3 mb 0.00 in0.0 mm 0.00 in0.0 mm 0.00 in0.0 mm
11:23 AM 52.3°F11.3°C 46.9°F8.3°C 82% 7.6 mph WNW12.2 kmh WNW 10.3 mph16.6 kmh 30.04 in1017.3 mb 0.00 in0.0 mm 0.00 in0.0 mm 0.00 in0.0 mm
11:20 AM 52.3°F11.3°C 46.9°F8.3°C 82% 7.2 mph W11.6 kmh W 11.6 mph18.7 kmh 30.04 in1017.3 mb 0.00 in0.0 mm 0.00 in0.0 mm 0.00 in0.0 mm
11:18 AM 52.3°F11.3°C 46.9°F8.3°C 82% 6.5 mph W10.5 kmh W 12.8 mph20.6 kmh 30.05 in1017.6 mb 0.00 in0.0 mm 0.00 in0.0 mm 0.00 in0.0 mm
11:16 AM 52.3°F11.3°C 47.3°F8.5°C 83% 4.7 mph NE7.6 kmh NE 6.7 mph10.8 kmh 30.04 in1017.3 mb 0.00 in0.0 mm 0.00 in0.0 mm 0.00 in0.0 mm
11:14 AM 52.3°F11.3°C 47.3°F8.5°C 83% 4.9 mph SW7.9 kmh SW 7.6 mph12.2 kmh 30.04 in1017.3 mb 0.00 in0.0 mm 0.00 in0.0 mm 0.00 in0.0 mm
11:11 AM 52.3°F11.3°C 47.3°F8.5°C 83% 4.5 mph S7.2 kmh S 5.4 mph8.7 kmh 30.04 in1017.3 mb 0.00 in0.0 mm 0.00 in0.0 mm 0.00 in0.0 mm
11:09 AM 52.2°F11.2°C 47.1°F8.4°C 83% 5.8 mph WSW9.3 kmh WSW 9.6 mph15.4 kmh 30.04 in1017.3 mb 0.00 in0.0 mm 0.00 in0.0 mm 0.00 in0.0 mm
11:07 AM 52.3°F11.3°C 46.9°F8.3°C 82% 6.3 mph W10.1 kmh W 8.7 mph14.0 kmh 30.05 in1017.6 mb 0.00 in0.0 mm 0.00 in0.0 mm 0.00 in0.0 mm
11:05 AM 52.2°F11.2°C 46.8°F8.2°C 82% 5.8 mph W9.3 kmh W 8.7 mph14.0 kmh 30.04 in1017.3 mb 0.00 in0.0 mm 0.00 in0.0 mm 0.00 in0.0 mm
11:03 AM 52.3°F11.3°C 46.9°F8.3°C 82% 6.5 mph NW10.5 kmh NW 12.3 mph19.8 kmh 30.05 in1017.6 mb 0.00 in0.0 mm 0.00 in0.0 mm 0.00 in0.0 mm
11:01 AM 52.2°F11.2°C 46.8°F8.2°C 82% 5.6 mph W9.0 kmh W 10.3 mph16.6 kmh 30.05 in1017.6 mb 0.00 in0.0 mm 0.00 in0.0 mm 0.00 in0.0 mm
10:58 AM 52.2°F11.2°C 46.8°F8.2°C 82% 4.9 mph W7.9 kmh W 6.7 mph10.8 kmh 30.06 in1017.9 mb 0.00 in0.0 mm 0.00 in0.0 mm 0.00 in0.0 mm
10:56 AM 52.2°F11.2°C 46.6°F8.1°C 81% 5.1 mph W8.2 kmh W 8.9 mph14.3 kmh 30.06 in1017.9 mb 0.00 in0.0 mm 0.00 in0.0 mm 0.00 in0.0 mm
10:54 AM 52.2°F11.2°C 46.6°F8.1°C 81% 4.5 mph SW7.2 kmh SW 9.6 mph15.4 kmh 30.07 in1018.3 mb 0.00 in0.0 mm 0.00 in0.0 mm 0.00 in0.0 mm
10:52 AM 52.3°F11.3°C 46.8°F8.2°C 81% 3.6 mph SW5.8 kmh SW 5.1 mph8.2 kmh 30.07 in1018.3 mb 0.00 in0.0 mm 0.00 in0.0 mm 0.00 in0.0 mm
10:50 AM 52.2°F11.2°C 46.6°F8.1°C 81% 4.5 mph NW7.2 kmh NW 7.2 mph11.6 kmh 30.07 in1018.3 mb 0.00 in0.0 mm 0.00 in0.0 mm 0.00 in0.0 mm
10:47 AM 52.2°F11.2°C 46.6°F8.1°C 81% 4.5 mph WSW7.2 kmh WSW 5.4 mph8.7 kmh 30.07 in1018.3 mb 0.00 in0.0 mm 0.00 in0.0 mm 0.00 in0.0 mm
10:45 AM 52.2°F11.2°C 46.6°F8.1°C 81% 5.6 mph NW9.0 kmh NW 13.6 mph21.9 kmh 30.07 in1018.3 mb 0.00 in0.0 mm 0.00 in0.0 mm 0.00 in0.0 mm
10:43 AM 52.2°F11.2°C 46.2°F7.9°C 80% 4.7 mph NW7.6 kmh NW 7.6 mph12.2 kmh 30.07 in1018.3 mb 0.00 in0.0 mm 0.00 in0.0 mm 0.00 in0.0 mm
10:41 AM 52.2°F11.2°C 46.2°F7.9°C 80% 5.4 mph SW8.7 kmh SW 11.9 mph19.2 kmh 30.07 in1018.3 mb 0.00 in0.0 mm 0.00 in0.0 mm 0.00 in0.0 mm
10:39 AM 52.2°F11.2°C 46.2°F7.9°C 80% 5.4 mph WSW8.7 kmh WSW 9.4 mph15.1 kmh 30.07 in1018.3 mb 0.00 in0.0 mm 0.00 in0.0 mm 0.00 in0.0 mm
10:36 AM 52.2°F11.2°C 46.6°F8.1°C 81% 6.5 mph WSW10.5 kmh WSW 14.1 mph22.7 kmh 30.07 in1018.3 mb 0.00 in0.0 mm 0.00 in0.0 mm 0.00 in0.0 mm
10:34 AM 52.3°F11.3°C 46.8°F8.2°C 81% 5.1 mph W8.2 kmh W 9.2 mph14.8 kmh 30.07 in1018.3 mb 0.00 in0.0 mm 0.00 in0.0 mm 0.00 in0.0 mm
10:32 AM 52.2°F11.2°C 46.6°F8.1°C 81% 4.5 mph 7.2 kmh 8.9 mph14.3 kmh 30.07 in1018.3 mb 0.00 in0.0 mm 0.00 in0.0 mm 0.00 in0.0 mm
10:30 AM 52.2°F11.2°C 46.6°F8.1°C 81% 4.9 mph WSW7.9 kmh WSW 10.3 mph16.6 kmh 30.06 in1017.9 mb 0.00 in0.0 mm 0.00 in0.0 mm 0.00 in0.0 mm
10:28 AM 52.0°F11.1°C 46.4°F8.0°C 81% 4.5 mph WNW7.2 kmh WNW 9.6 mph15.4 kmh 30.06 in1017.9 mb 0.00 in0.0 mm 0.00 in0.0 mm 0.00 in0.0 mm
10:25 AM 52.0°F11.1°C 46.4°F8.0°C 81% 4.3 mph S6.9 kmh S 5.8 mph9.3 kmh 30.07 in1018.3 mb 0.00 in0.0 mm 0.00 in0.0 mm 0.00 in0.0 mm
10:23 AM 52.0°F11.1°C 46.4°F8.0°C 81% 5.4 mph NW8.7 kmh NW 9.8 mph15.8 kmh 30.07 in1018.3 mb 0.00 in0.0 mm 0.00 in0.0 mm 0.00 in0.0 mm
10:21 AM 52.0°F11.1°C 46.4°F8.0°C 81% 4.9 mph WNW7.9 kmh WNW 6.9 mph11.1 kmh 30.07 in1018.3 mb 0.00 in0.0 mm 0.00 in0.0 mm 0.00 in0.0 mm
10:19 AM 52.0°F11.1°C 46.4°F8.0°C 81% 5.4 mph SW8.7 kmh SW 8.9 mph14.3 kmh 30.07 in1018.3 mb 0.00 in0.0 mm 0.00 in0.0 mm 0.00 in0.0 mm
10:16 AM 51.8°F11.0°C 46.2°F7.9°C 81% 4.9 mph NNW7.9 kmh NNW 8.9 mph14.3 kmh 30.07 in1018.3 mb 0.00 in0.0 mm 0.00 in0.0 mm 0.00 in0.0 mm
10:14 AM 51.8°F11.0°C 46.2°F7.9°C 81% 5.4 mph W8.7 kmh W 6.9 mph11.1 kmh 30.07 in1018.3 mb 0.00 in0.0 mm 0.00 in0.0 mm 0.00 in0.0 mm
10:12 AM 51.8°F11.0°C 46.2°F7.9°C 81% 6.3 mph NW10.1 kmh NW 10.7 mph17.2 kmh 30.07 in1018.3 mb 0.00 in0.0 mm 0.00 in0.0 mm 0.00 in0.0 mm
10:10 AM 51.6°F10.9°C 46.0°F7.8°C 81% 8.1 mph WNW13.0 kmh WNW 18.3 mph29.5 kmh 30.07 in1018.3 mb 0.00 in0.0 mm 0.00 in0.0 mm 0.00 in0.0 mm
10:08 AM 51.6°F10.9°C 46.0°F7.8°C 81% 6.5 mph WNW10.5 kmh WNW 12.8 mph20.6 kmh 30.06 in1017.9 mb 0.00 in0.0 mm 0.00 in0.0 mm 0.00 in0.0 mm
10:05 AM 51.6°F10.9°C 46.0°F7.8°C 81% 6.0 mph WNW9.7 kmh WNW 9.2 mph14.8 kmh 30.06 in1017.9 mb 0.00 in0.0 mm 0.00 in0.0 mm 0.00 in0.0 mm
10:03 AM 51.6°F10.9°C 46.0°F7.8°C 81% 5.8 mph WSW9.3 kmh WSW 11.4 mph18.3 kmh 30.06 in1017.9 mb 0.00 in0.0 mm 0.00 in0.0 mm 0.00 in0.0 mm
10:01 AM 51.6°F10.9°C 46.0°F7.8°C 81% 6.3 mph W10.1 kmh W 9.8 mph15.8 kmh 30.06 in1017.9 mb 0.00 in0.0 mm 0.00 in0.0 mm 0.00 in0.0 mm
09:59 AM 51.6°F10.9°C 46.0°F7.8°C 81% 5.6 mph 9.0 kmh 11.4 mph18.3 kmh 30.05 in1017.6 mb 0.00 in0.0 mm 0.00 in0.0 mm 0.00 in0.0 mm
09:56 AM 51.6°F10.9°C 46.0°F7.8°C 81% 5.8 mph WNW9.3 kmh WNW 13.4 mph21.6 kmh 30.05 in1017.6 mb 0.00 in0.0 mm 0.00 in0.0 mm 0.00 in0.0 mm
09:54 AM 51.6°F10.9°C 46.0°F7.8°C 81% 6.3 mph WSW10.1 kmh WSW 9.4 mph15.1 kmh 30.05 in1017.6 mb 0.00 in0.0 mm 0.00 in0.0 mm 0.00 in0.0 mm
09:52 AM 51.4°F10.8°C 45.9°F7.7°C 81% 5.6 mph NW9.0 kmh NW 6.0 mph9.7 kmh 30.05 in1017.6 mb 0.00 in0.0 mm 0.00 in0.0 mm 0.00 in0.0 mm
09:50 AM 51.4°F10.8°C 45.9°F7.7°C 81% 6.0 mph 9.7 kmh 11.0 mph17.7 kmh 30.06 in1017.9 mb 0.00 in0.0 mm 0.00 in0.0 mm 0.00 in0.0 mm
09:48 AM 51.4°F10.8°C 45.9°F7.7°C 81% 6.3 mph NW10.1 kmh NW 6.9 mph11.1 kmh 30.06 in1017.9 mb 0.00 in0.0 mm 0.00 in0.0 mm 0.00 in0.0 mm
09:45 AM 51.4°F10.8°C 45.9°F7.7°C 81% 6.9 mph WNW11.1 kmh WNW 13.6 mph21.9 kmh 30.05 in1017.6 mb 0.00 in0.0 mm 0.00 in0.0 mm 0.00 in0.0 mm
09:43 AM 51.4°F10.8°C 46.2°F7.9°C 82% 5.1 mph SSW8.2 kmh SSW 8.3 mph13.4 kmh 30.06 in1017.9 mb 0.00 in0.0 mm 0.00 in0.0 mm 0.00 in0.0 mm
09:41 AM 51.3°F10.7°C 46.0°F7.8°C 82% 5.6 mph WNW9.0 kmh WNW 8.3 mph13.4 kmh 30.06 in1017.9 mb 0.00 in0.0 mm 0.00 in0.0 mm 0.00 in0.0 mm
09:38 AM 51.3°F10.7°C 46.0°F7.8°C 82% 7.4 mph WNW11.9 kmh WNW 17.9 mph28.8 kmh 30.06 in1017.9 mb 0.00 in0.0 mm 0.00 in0.0 mm 0.00 in0.0 mm
09:36 AM 51.3°F10.7°C 46.0°F7.8°C 82% 5.1 mph NNW8.2 kmh NNW 7.6 mph12.2 kmh 30.06 in1017.9 mb 0.00 in0.0 mm 0.00 in0.0 mm 0.00 in0.0 mm
09:34 AM 51.3°F10.7°C 46.0°F7.8°C 82% 4.7 mph NNW7.6 kmh NNW 8.9 mph14.3 kmh 30.06 in1017.9 mb 0.00 in0.0 mm 0.00 in0.0 mm 0.00 in0.0 mm
09:32 AM 51.1°F10.6°C 45.9°F7.7°C 82% 4.0 mph NW6.4 kmh NW 6.3 mph10.1 kmh 30.06 in1017.9 mb 0.00 in0.0 mm 0.00 in0.0 mm 0.00 in0.0 mm
09:30 AM 51.1°F10.6°C 45.9°F7.7°C 82% 4.3 mph SSE6.9 kmh SSE 8.5 mph13.7 kmh 30.06 in1017.9 mb 0.00 in0.0 mm 0.00 in0.0 mm 0.00 in0.0 mm
09:28 AM 51.1°F10.6°C 45.9°F7.7°C 82% 4.5 mph NW7.2 kmh NW 9.8 mph15.8 kmh 30.06 in1017.9 mb 0.00 in0.0 mm 0.00 in0.0 mm 0.00 in0.0 mm
09:26 AM 51.1°F10.6°C 45.9°F7.7°C 82% 3.8 mph WNW6.1 kmh WNW 8.3 mph13.4 kmh 30.06 in1017.9 mb 0.00 in0.0 mm 0.00 in0.0 mm 0.00 in0.0 mm
09:23 AM 51.1°F10.6°C 46.0°F7.8°C 83% 3.8 mph W6.1 kmh W 5.1 mph8.2 kmh 30.06 in1017.9 mb 0.00 in0.0 mm 0.00 in0.0 mm 0.00 in0.0 mm
09:21 AM 50.9°F10.5°C 45.9°F7.7°C 83% 4.0 mph NNW6.4 kmh NNW 9.4 mph15.1 kmh 30.06 in1017.9 mb 0.00 in0.0 mm 0.00 in0.0 mm 0.00 in0.0 mm
09:19 AM 50.9°F10.5°C 45.9°F7.7°C 83% 3.8 mph SSW6.1 kmh SSW 4.7 mph7.6 kmh 30.06 in1017.9 mb 0.00 in0.0 mm 0.00 in0.0 mm 0.00 in0.0 mm
09:17 AM 50.9°F10.5°C 45.9°F7.7°C 83% 4.3 mph ESE6.9 kmh ESE 9.8 mph15.8 kmh 30.06 in1017.9 mb 0.00 in0.0 mm 0.00 in0.0 mm 0.00 in0.0 mm
09:14 AM 50.7°F10.4°C 45.7°F7.6°C 83% 4.0 mph WSW6.4 kmh WSW 7.8 mph12.6 kmh 30.06 in1017.9 mb 0.00 in0.0 mm 0.00 in0.0 mm 0.00 in0.0 mm
09:12 AM 50.7°F10.4°C 46.0°F7.8°C 84% 4.0 mph 6.4 kmh 4.7 mph7.6 kmh 30.06 in1017.9 mb 0.00 in0.0 mm 0.00 in0.0 mm 0.00 in0.0 mm
09:10 AM 50.5°F10.3°C 45.9°F7.7°C 84% 4.5 mph WNW7.2 kmh WNW 9.2 mph14.8 kmh 30.06 in1017.9 mb 0.00 in0.0 mm 0.00 in0.0 mm 0.00 in0.0 mm
09:08 AM 50.5°F10.3°C 45.9°F7.7°C 84% 4.3 mph W6.9 kmh W 5.6 mph9.0 kmh 30.06 in1017.9 mb 0.00 in0.0 mm 0.00 in0.0 mm 0.00 in0.0 mm
09:06 AM 50.5°F10.3°C 45.9°F7.7°C 84% 4.5 mph WNW7.2 kmh WNW 11.4 mph18.3 kmh 30.06 in1017.9 mb 0.00 in0.0 mm 0.00 in0.0 mm 0.00 in0.0 mm
09:04 AM 50.4°F10.2°C 45.7°F7.6°C 84% 2.5 mph WNW4.0 kmh WNW 3.8 mph6.1 kmh 30.06 in1017.9 mb 0.00 in0.0 mm 0.00 in0.0 mm 0.00 in0.0 mm
09:01 AM 50.2°F10.1°C 45.5°F7.5°C 84% 2.2 mph E3.5 kmh E 3.1 mph5.0 kmh 30.06 in1017.9 mb 0.00 in0.0 mm 0.00 in0.0 mm 0.00 in0.0 mm
08:59 AM 50.2°F10.1°C 45.5°F7.5°C 84% 2.2 mph NNW3.5 kmh NNW 4.5 mph7.2 kmh 30.06 in1017.9 mb 0.00 in0.0 mm 0.00 in0.0 mm 0.00 in0.0 mm
08:57 AM 50.2°F10.1°C 45.5°F7.5°C 84% 2.2 mph E3.5 kmh E 4.3 mph6.9 kmh 30.06 in1017.9 mb 0.00 in0.0 mm 0.00 in0.0 mm 0.00 in0.0 mm
08:55 AM 50.0°F10.0°C 45.3°F7.4°C 84% 3.4 mph WSW5.5 kmh WSW 8.3 mph13.4 kmh 30.06 in1017.9 mb 0.00 in0.0 mm 0.00 in0.0 mm 0.00 in0.0 mm
08:52 AM 49.8°F9.9°C 45.1°F7.3°C 84% 2.9 mph SW4.7 kmh SW 6.3 mph10.1 kmh 30.06 in1017.9 mb 0.00 in0.0 mm 0.00 in0.0 mm 0.00 in0.0 mm
08:50 AM 49.8°F9.9°C 45.1°F7.3°C 84% 2.9 mph W4.7 kmh W 3.8 mph6.1 kmh 30.06 in1017.9 mb 0.00 in0.0 mm 0.00 in0.0 mm 0.00 in0.0 mm
08:48 AM 49.8°F9.9°C 45.1°F7.3°C 84% 3.4 mph WNW5.5 kmh WNW 5.8 mph9.3 kmh 30.06 in1017.9 mb 0.00 in0.0 mm 0.00 in0.0 mm 0.00 in0.0 mm
08:46 AM 49.8°F9.9°C 45.1°F7.3°C 84% 3.6 mph W5.8 kmh W 6.9 mph11.1 kmh 30.06 in1017.9 mb 0.00 in0.0 mm 0.00 in0.0 mm 0.00 in0.0 mm
08:43 AM 49.8°F9.9°C 45.1°F7.3°C 84% 2.2 mph 3.5 kmh 5.1 mph8.2 kmh 30.06 in1017.9 mb 0.00 in0.0 mm 0.00 in0.0 mm 0.00 in0.0 mm
08:41 AM 49.8°F9.9°C 45.1°F7.3°C 84% 2.5 mph WNW4.0 kmh WNW 4.0 mph6.4 kmh 30.06 in1017.9 mb 0.00 in0.0 mm 0.00 in0.0 mm 0.00 in0.0 mm
08:39 AM 49.8°F9.9°C 45.1°F7.3°C 84% 2.7 mph WSW4.3 kmh WSW 4.5 mph7.2 kmh 30.06 in1017.9 mb 0.00 in0.0 mm 0.00 in0.0 mm 0.00 in0.0 mm
08:36 AM 49.8°F9.9°C 45.1°F7.3°C 84% 2.9 mph W4.7 kmh W 5.1 mph8.2 kmh 30.06 in1017.9 mb 0.00 in0.0 mm 0.00 in0.0 mm 0.00 in0.0 mm
08:34 AM 49.6°F9.8°C 45.0°F7.2°C 84% 3.1 mph NW5.0 kmh NW 5.8 mph9.3 kmh 30.06 in1017.9 mb 0.00 in0.0 mm 0.00 in0.0 mm 0.00 in0.0 mm
08:32 AM 49.6°F9.8°C 45.0°F7.2°C 84% 2.7 mph NW4.3 kmh NW 4.3 mph6.9 kmh 30.06 in1017.9 mb 0.00 in0.0 mm 0.00 in0.0 mm 0.00 in0.0 mm
08:30 AM 49.6°F9.8°C 45.0°F7.2°C 84% 3.1 mph WNW5.0 kmh WNW 6.9 mph11.1 kmh 30.06 in1017.9 mb 0.00 in0.0 mm 0.00 in0.0 mm 0.00 in0.0 mm
08:28 AM 49.6°F9.8°C 44.8°F7.1°C 83% 2.0 mph NNW3.2 kmh NNW 3.6 mph5.8 kmh 30.06 in1017.9 mb 0.00 in0.0 mm 0.00 in0.0 mm 0.00 in0.0 mm
08:26 AM 49.6°F9.8°C 44.8°F7.1°C 83% 2.5 mph W4.0 kmh W 4.5 mph7.2 kmh 30.06 in1017.9 mb 0.00 in0.0 mm 0.00 in0.0 mm 0.00 in0.0 mm
08:23 AM 49.6°F9.8°C 44.8°F7.1°C 83% 2.9 mph WSW4.7 kmh WSW 5.8 mph9.3 kmh 30.06 in1017.9 mb 0.00 in0.0 mm 0.00 in0.0 mm 0.00 in0.0 mm
08:21 AM 49.6°F9.8°C 44.8°F7.1°C 83% 2.5 mph E4.0 kmh E 4.5 mph7.2 kmh 30.06 in1017.9 mb 0.00 in0.0 mm 0.00 in0.0 mm 0.00 in0.0 mm
08:19 AM 49.6°F9.8°C 44.8°F7.1°C 83% 2.9 mph W4.7 kmh W 5.4 mph8.7 kmh 30.06 in1017.9 mb 0.00 in0.0 mm 0.00 in0.0 mm 0.00 in0.0 mm
08:17 AM 49.6°F9.8°C 44.8°F7.1°C 83% 3.4 mph WSW5.5 kmh WSW 8.1 mph13.0 kmh 30.06 in1017.9 mb 0.00 in0.0 mm 0.00 in0.0 mm 0.00 in0.0 mm
08:15 AM 49.6°F9.8°C 44.8°F7.1°C 83% 2.9 mph WSW4.7 kmh WSW 6.9 mph11.1 kmh 30.05 in1017.6 mb 0.00 in0.0 mm 0.00 in0.0 mm 0.00 in0.0 mm
08:12 AM 49.6°F9.8°C 44.8°F7.1°C 83% 2.5 mph NE4.0 kmh NE 4.7 mph7.6 kmh 30.06 in1017.9 mb 0.00 in0.0 mm 0.00 in0.0 mm 0.00 in0.0 mm
08:10 AM 49.6°F9.8°C 44.8°F7.1°C 83% 2.5 mph NNE4.0 kmh NNE 4.5 mph7.2 kmh 30.06 in1017.9 mb 0.00 in0.0 mm 0.00 in0.0 mm 0.00 in0.0 mm
08:08 AM 49.6°F9.8°C 44.8°F7.1°C 83% 2.0 mph W3.2 kmh W 3.6 mph5.8 kmh 30.06 in1017.9 mb 0.00 in0.0 mm 0.00 in0.0 mm 0.00 in0.0 mm
08:06 AM 49.8°F9.9°C 44.8°F7.1°C 83% 2.7 mph SSW4.3 kmh SSW 6.0 mph9.7 kmh 30.06 in1017.9 mb 0.00 in0.0 mm 0.00 in0.0 mm 0.00 in0.0 mm
08:04 AM 49.8°F9.9°C 44.6°F7.0°C 82% 3.6 mph W5.8 kmh W 4.7 mph7.6 kmh 30.06 in1017.9 mb 0.00 in0.0 mm 0.00 in0.0 mm 0.00 in0.0 mm
08:01 AM 49.8°F9.9°C 44.6°F7.0°C 82% 3.8 mph W6.1 kmh W 6.0 mph9.7 kmh 30.06 in1017.9 mb 0.00 in0.0 mm 0.00 in0.0 mm 0.00 in0.0 mm
07:59 AM 49.8°F9.9°C 44.6°F7.0°C 82% 3.4 mph NW5.5 kmh NW 6.3 mph10.1 kmh 30.06 in1017.9 mb 0.00 in0.0 mm 0.00 in0.0 mm 0.00 in0.0 mm
07:57 AM 49.8°F9.9°C 44.6°F7.0°C 82% 4.0 mph W6.4 kmh W 10.7 mph17.2 kmh 30.06 in1017.9 mb 0.00 in0.0 mm 0.00 in0.0 mm 0.00 in0.0 mm
07:55 AM 49.8°F9.9°C 44.6°F7.0°C 82% 3.4 mph S5.5 kmh S 9.6 mph15.4 kmh 30.06 in1017.9 mb 0.00 in0.0 mm 0.00 in0.0 mm 0.00 in0.0 mm
07:52 AM 49.8°F9.9°C 44.6°F7.0°C 82% 2.7 mph NNW4.3 kmh NNW 5.8 mph9.3 kmh 30.06 in1017.9 mb 0.00 in0.0 mm 0.00 in0.0 mm 0.00 in0.0 mm
07:50 AM 49.8°F9.9°C 44.6°F7.0°C 82% 3.4 mph WNW5.5 kmh WNW 10.3 mph16.6 kmh 30.06 in1017.9 mb 0.00 in0.0 mm 0.00 in0.0 mm 0.00 in0.0 mm
07:48 AM 49.8°F9.9°C 44.6°F7.0°C 82% 3.1 mph NNE5.0 kmh NNE 11.2 mph18.0 kmh 30.06 in1017.9 mb 0.00 in0.0 mm 0.00 in0.0 mm 0.00 in0.0 mm
07:46 AM 49.8°F9.9°C 44.6°F7.0°C 82% 3.1 mph W5.0 kmh W 3.8 mph6.1 kmh 30.06 in1017.9 mb 0.00 in0.0 mm 0.00 in0.0 mm 0.00 in0.0 mm
07:44 AM 49.8°F9.9°C 44.6°F7.0°C 82% 3.4 mph NW5.5 kmh NW 7.4 mph11.9 kmh 30.06 in1017.9 mb 0.00 in0.0 mm 0.00 in0.0 mm 0.00 in0.0 mm
07:41 AM 49.8°F9.9°C 44.6°F7.0°C 82% 3.4 mph NNW5.5 kmh NNW 4.7 mph7.6 kmh 30.06 in1017.9 mb 0.00 in0.0 mm 0.00 in0.0 mm 0.00 in0.0 mm
07:39 AM 49.8°F9.9°C 44.6°F7.0°C 82% 3.6 mph NNW5.8 kmh NNW 5.1 mph8.2 kmh 30.06 in1017.9 mb 0.00 in0.0 mm 0.00 in0.0 mm 0.00 in0.0 mm
07:37 AM 49.8°F9.9°C 44.2°F6.8°C 81% 4.0 mph NNW6.4 kmh NNW 5.1 mph8.2 kmh 30.06 in1017.9 mb 0.00 in0.0 mm 0.00 in0.0 mm 0.00 in0.0 mm
07:35 AM 50.0°F10.0°C 44.4°F6.9°C 81% 5.6 mph 9.0 kmh 9.6 mph15.4 kmh 30.06 in1017.9 mb 0.00 in0.0 mm 0.00 in0.0 mm 0.00 in0.0 mm
07:32 AM 50.2°F10.1°C 44.6°F7.0°C 81% 7.4 mph WNW11.9 kmh WNW 15.2 mph24.5 kmh 30.06 in1017.9 mb 0.00 in0.0 mm 0.00 in0.0 mm 0.00 in0.0 mm
07:30 AM 50.0°F10.0°C 44.4°F6.9°C 81% 4.7 mph NNE7.6 kmh NNE 15.9 mph25.6 kmh 30.06 in1017.9 mb 0.00 in0.0 mm 0.00 in0.0 mm 0.00 in0.0 mm
07:28 AM 50.2°F10.1°C 44.6°F7.0°C 81% 4.7 mph W7.6 kmh W 7.8 mph12.6 kmh 30.06 in1017.9 mb 0.00 in0.0 mm 0.00 in0.0 mm 0.00 in0.0 mm
07:26 AM 50.2°F10.1°C 44.6°F7.0°C 81% 5.1 mph NW8.2 kmh NW 10.5 mph16.9 kmh 30.06 in1017.9 mb 0.00 in0.0 mm 0.00 in0.0 mm 0.00 in0.0 mm
07:24 AM 50.2°F10.1°C 44.6°F7.0°C 81% 5.1 mph W8.2 kmh W 10.5 mph16.9 kmh 30.06 in1017.9 mb 0.00 in0.0 mm 0.00 in0.0 mm 0.00 in0.0 mm
07:21 AM 50.2°F10.1°C 44.6°F7.0°C 81% 5.4 mph NW8.7 kmh NW 8.3 mph13.4 kmh 30.06 in1017.9 mb 0.00 in0.0 mm 0.00 in0.0 mm 0.00 in0.0 mm
07:19 AM 50.2°F10.1°C 44.2°F6.8°C 80% 5.1 mph NNE8.2 kmh NNE 6.9 mph11.1 kmh 30.06 in1017.9 mb 0.00 in0.0 mm 0.00 in0.0 mm 0.00 in0.0 mm
07:17 AM 50.0°F10.0°C 44.1°F6.7°C 80% 5.8 mph WNW9.3 kmh WNW 11.0 mph17.7 kmh 30.06 in1017.9 mb 0.00 in0.0 mm 0.00 in0.0 mm 0.00 in0.0 mm
07:15 AM 49.8°F9.9°C 43.9°F6.6°C 80% 5.8 mph NW9.3 kmh NW 11.0 mph17.7 kmh 30.06 in1017.9 mb 0.00 in0.0 mm 0.00 in0.0 mm 0.00 in0.0 mm
07:13 AM 50.0°F10.0°C 44.1°F6.7°C 80% 4.9 mph WSW7.9 kmh WSW 6.5 mph10.5 kmh 30.06 in1017.9 mb 0.00 in0.0 mm 0.00 in0.0 mm 0.00 in0.0 mm
07:11 AM 50.0°F10.0°C 44.1°F6.7°C 80% 5.4 mph NNE8.7 kmh NNE 9.2 mph14.8 kmh 30.06 in1017.9 mb 0.00 in0.0 mm 0.00 in0.0 mm 0.00 in0.0 mm
07:09 AM 50.2°F10.1°C 44.2°F6.8°C 80% 5.6 mph WNW9.0 kmh WNW 6.7 mph10.8 kmh 30.06 in1017.9 mb 0.00 in0.0 mm 0.00 in0.0 mm 0.00 in0.0 mm
07:07 AM 50.2°F10.1°C 44.2°F6.8°C 80% 6.7 mph NNW10.8 kmh NNW 11.4 mph18.3 kmh 30.06 in1017.9 mb 0.00 in0.0 mm 0.00 in0.0 mm 0.00 in0.0 mm
07:05 AM 50.2°F10.1°C 44.2°F6.8°C 80% 7.4 mph W11.9 kmh W 14.1 mph22.7 kmh 30.06 in1017.9 mb 0.00 in0.0 mm 0.00 in0.0 mm 0.00 in0.0 mm
07:02 AM 50.0°F10.0°C 44.1°F6.7°C 80% 5.4 mph S8.7 kmh S 10.3 mph16.6 kmh 30.06 in1017.9 mb 0.00 in0.0 mm 0.00 in0.0 mm 0.00 in0.0 mm
07:00 AM 49.8°F9.9°C 43.9°F6.6°C 80% 6.3 mph NW10.1 kmh NW 13.0 mph20.9 kmh 30.05 in1017.6 mb 0.00 in0.0 mm 0.00 in0.0 mm 0.00 in0.0 mm
06:58 AM 49.8°F9.9°C 43.9°F6.6°C 80% 4.0 mph WSW6.4 kmh WSW 6.3 mph10.1 kmh 30.06 in1017.9 mb 0.00 in0.0 mm 0.00 in0.0 mm 0.00 in0.0 mm
06:56 AM 49.8°F9.9°C 44.2°F6.8°C 81% 4.3 mph W6.9 kmh W 8.9 mph14.3 kmh 30.06 in1017.9 mb 0.00 in0.0 mm 0.00 in0.0 mm 0.00 in0.0 mm
06:54 AM 49.8°F9.9°C 44.2°F6.8°C 81% 4.0 mph W6.4 kmh W 6.0 mph9.7 kmh 30.06 in1017.9 mb 0.00 in0.0 mm 0.00 in0.0 mm 0.00 in0.0 mm
06:51 AM 49.8°F9.9°C 44.2°F6.8°C 81% 4.3 mph NNW6.9 kmh NNW 5.1 mph8.2 kmh 30.06 in1017.9 mb 0.00 in0.0 mm 0.00 in0.0 mm 0.00 in0.0 mm
06:49 AM 49.8°F9.9°C 44.2°F6.8°C 81% 5.4 mph WNW8.7 kmh WNW 9.2 mph14.8 kmh 30.06 in1017.9 mb 0.00 in0.0 mm 0.00 in0.0 mm 0.00 in0.0 mm
06:47 AM 49.6°F9.8°C 44.1°F6.7°C 81% 4.0 mph NW6.4 kmh NW 7.4 mph11.9 kmh 30.06 in1017.9 mb 0.00 in0.0 mm 0.00 in0.0 mm 0.00 in0.0 mm
06:45 AM 49.8°F9.9°C 44.2°F6.8°C 81% 3.8 mph NW6.1 kmh NW 7.4 mph11.9 kmh 30.06 in1017.9 mb 0.00 in0.0 mm 0.00 in0.0 mm 0.00 in0.0 mm
06:43 AM 49.6°F9.8°C 44.1°F6.7°C 81% 3.6 mph WSW5.8 kmh WSW 5.1 mph8.2 kmh 30.06 in1017.9 mb 0.00 in0.0 mm 0.00 in0.0 mm 0.00 in0.0 mm
06:41 AM 49.6°F9.8°C 44.1°F6.7°C 81% 3.6 mph W5.8 kmh W 4.0 mph6.4 kmh 30.06 in1017.9 mb 0.00 in0.0 mm 0.00 in0.0 mm 0.00 in0.0 mm
06:38 AM 49.6°F9.8°C 44.1°F6.7°C 81% 4.0 mph W6.4 kmh W 7.2 mph11.6 kmh 30.06 in1017.9 mb 0.00 in0.0 mm 0.00 in0.0 mm 0.00 in0.0 mm
06:36 AM 49.8°F9.9°C 44.2°F6.8°C 81% 4.0 mph SSW6.4 kmh SSW 6.7 mph10.8 kmh 30.06 in1017.9 mb 0.00 in0.0 mm 0.00 in0.0 mm 0.00 in0.0 mm
06:34 AM 49.8°F9.9°C 44.2°F6.8°C 81% 4.0 mph 6.4 kmh 6.7 mph10.8 kmh 30.06 in1017.9 mb 0.00 in0.0 mm 0.00 in0.0 mm 0.00 in0.0 mm
06:32 AM 49.8°F9.9°C 44.2°F6.8°C 81% 3.6 mph NW5.8 kmh NW 7.4 mph11.9 kmh 30.06 in1017.9 mb 0.00 in0.0 mm 0.00 in0.0 mm 0.00 in0.0 mm
06:30 AM 49.8°F9.9°C 44.2°F6.8°C 81% 3.6 mph NW5.8 kmh NW 11.9 mph19.2 kmh 30.06 in1017.9 mb 0.00 in0.0 mm 0.00 in0.0 mm 0.00 in0.0 mm
06:28 AM 49.6°F9.8°C 44.1°F6.7°C 81% 2.9 mph E4.7 kmh E 4.0 mph6.4 kmh 30.06 in1017.9 mb 0.00 in0.0 mm 0.00 in0.0 mm 0.00 in0.0 mm
06:25 AM 49.8°F9.9°C 44.2°F6.8°C 81% 3.8 mph W6.1 kmh W 4.5 mph7.2 kmh 30.06 in1017.9 mb 0.00 in0.0 mm 0.00 in0.0 mm 0.00 in0.0 mm
06:23 AM 49.6°F9.8°C 44.1°F6.7°C 81% 4.9 mph WNW7.9 kmh WNW 9.8 mph15.8 kmh 30.06 in1017.9 mb 0.00 in0.0 mm 0.00 in0.0 mm 0.00 in0.0 mm
06:21 AM 49.6°F9.8°C 44.4°F6.9°C 82% 3.8 mph SSE6.1 kmh SSE 5.6 mph9.0 kmh 30.06 in1017.9 mb 0.00 in0.0 mm 0.00 in0.0 mm 0.00 in0.0 mm
06:19 AM 49.6°F9.8°C 44.4°F6.9°C 82% 3.6 mph WNW5.8 kmh WNW 4.7 mph7.6 kmh 30.06 in1017.9 mb 0.00 in0.0 mm 0.00 in0.0 mm 0.00 in0.0 mm
06:17 AM 49.6°F9.8°C 44.4°F6.9°C 82% 3.8 mph WNW6.1 kmh WNW 7.6 mph12.2 kmh 30.06 in1017.9 mb 0.00 in0.0 mm 0.00 in0.0 mm 0.00 in0.0 mm
06:15 AM 49.6°F9.8°C 44.4°F6.9°C 82% 4.0 mph NNW6.4 kmh NNW 6.5 mph10.5 kmh 30.06 in1017.9 mb 0.00 in0.0 mm 0.00 in0.0 mm 0.00 in0.0 mm
06:12 AM 49.6°F9.8°C 44.4°F6.9°C 82% 3.8 mph SW6.1 kmh SW 4.0 mph6.4 kmh 30.06 in1017.9 mb 0.00 in0.0 mm 0.00 in0.0 mm 0.00 in0.0 mm
06:10 AM 49.6°F9.8°C 44.4°F6.9°C 82% 4.9 mph W7.9 kmh W 7.8 mph12.6 kmh 30.06 in1017.9 mb 0.00 in0.0 mm 0.00 in0.0 mm 0.00 in0.0 mm
06:08 AM 49.6°F9.8°C 44.4°F6.9°C 82% 4.5 mph WNW7.2 kmh WNW 7.4 mph11.9 kmh 30.06 in1017.9 mb 0.00 in0.0 mm 0.00 in0.0 mm 0.00 in0.0 mm
06:06 AM 49.6°F9.8°C 44.4°F6.9°C 82% 3.6 mph WNW5.8 kmh WNW 4.9 mph7.9 kmh 30.06 in1017.9 mb 0.00 in0.0 mm 0.00 in0.0 mm 0.00 in0.0 mm
06:03 AM 49.6°F9.8°C 44.4°F6.9°C 82% 4.0 mph WSW6.4 kmh WSW 5.4 mph8.7 kmh 30.06 in1017.9 mb 0.00 in0.0 mm 0.00 in0.0 mm 0.00 in0.0 mm
06:01 AM 49.5°F9.7°C 44.2°F6.8°C 82% 4.0 mph WSW6.4 kmh WSW 7.6 mph12.2 kmh 30.06 in1017.9 mb 0.00 in0.0 mm 0.00 in0.0 mm 0.00 in0.0 mm
05:59 AM 49.3°F9.6°C 44.1°F6.7°C 82% 4.7 mph WSW7.6 kmh WSW 6.3 mph10.1 kmh 30.06 in1017.9 mb 0.00 in0.0 mm 0.00 in0.0 mm 0.00 in0.0 mm
05:57 AM 49.3°F9.6°C 44.1°F6.7°C 82% 5.6 mph W9.0 kmh W 13.0 mph20.9 kmh 30.06 in1017.9 mb 0.00 in0.0 mm 0.00 in0.0 mm 0.00 in0.0 mm
05:55 AM 49.3°F9.6°C 44.1°F6.7°C 82% 5.1 mph NNW8.2 kmh NNW 14.8 mph23.8 kmh 30.06 in1017.9 mb 0.00 in0.0 mm 0.00 in0.0 mm 0.00 in0.0 mm
05:52 AM 49.3°F9.6°C 44.1°F6.7°C 82% 4.5 mph WSW7.2 kmh WSW 11.0 mph17.7 kmh 30.06 in1017.9 mb 0.00 in0.0 mm 0.00 in0.0 mm 0.00 in0.0 mm
05:50 AM 49.3°F9.6°C 44.4°F6.9°C 83% 4.9 mph WNW7.9 kmh WNW 5.1 mph8.2 kmh 30.06 in1017.9 mb 0.00 in0.0 mm 0.00 in0.0 mm 0.00 in0.0 mm
05:48 AM 49.3°F9.6°C 44.4°F6.9°C 83% 6.5 mph WNW10.5 kmh WNW 13.0 mph20.9 kmh 30.06 in1017.9 mb 0.00 in0.0 mm 0.00 in0.0 mm 0.00 in0.0 mm
05:46 AM 49.1°F9.5°C 44.2°F6.8°C 83% 6.5 mph W10.5 kmh W 13.9 mph22.4 kmh 30.06 in1017.9 mb 0.00 in0.0 mm 0.00 in0.0 mm 0.00 in0.0 mm
05:44 AM 49.1°F9.5°C 44.2°F6.8°C 83% 6.3 mph SW10.1 kmh SW 14.8 mph23.8 kmh 30.06 in1017.9 mb 0.00 in0.0 mm 0.00 in0.0 mm 0.00 in0.0 mm
05:41 AM 49.1°F9.5°C 44.2°F6.8°C 83% 5.1 mph WNW8.2 kmh WNW 13.9 mph22.4 kmh 30.06 in1017.9 mb 0.00 in0.0 mm 0.00 in0.0 mm 0.00 in0.0 mm
05:39 AM 49.1°F9.5°C 44.2°F6.8°C 83% 5.4 mph WNW8.7 kmh WNW 8.3 mph13.4 kmh 30.06 in1017.9 mb 0.00 in0.0 mm 0.00 in0.0 mm 0.00 in0.0 mm
05:37 AM 49.1°F9.5°C 43.9°F6.6°C 82% 4.7 mph W7.6 kmh W 10.7 mph17.2 kmh 30.07 in1018.3 mb 0.00 in0.0 mm 0.00 in0.0 mm 0.00 in0.0 mm
05:35 AM 49.3°F9.6°C 44.1°F6.7°C 82% 3.6 mph NW5.8 kmh NW 6.9 mph11.1 kmh 30.07 in1018.3 mb 0.00 in0.0 mm 0.00 in0.0 mm 0.00 in0.0 mm
05:33 AM 49.3°F9.6°C 43.7°F6.5°C 81% 3.8 mph WNW6.1 kmh WNW 6.0 mph9.7 kmh 30.07 in1018.3 mb 0.00 in0.0 mm 0.00 in0.0 mm 0.00 in0.0 mm
05:31 AM 49.3°F9.6°C 43.7°F6.5°C 81% 3.8 mph NNW6.1 kmh NNW 6.0 mph9.7 kmh 30.07 in1018.3 mb 0.00 in0.0 mm 0.00 in0.0 mm 0.00 in0.0 mm
05:28 AM 49.3°F9.6°C 43.7°F6.5°C 81% 3.6 mph NNE5.8 kmh NNE 7.8 mph12.6 kmh 30.07 in1018.3 mb 0.00 in0.0 mm 0.00 in0.0 mm 0.00 in0.0 mm
05:26 AM 49.3°F9.6°C 43.7°F6.5°C 81% 3.1 mph NW5.0 kmh NW 6.0 mph9.7 kmh 30.07 in1018.3 mb 0.00 in0.0 mm 0.00 in0.0 mm 0.00 in0.0 mm
05:24 AM 49.3°F9.6°C 43.3°F6.3°C 80% 3.1 mph NNE5.0 kmh NNE 8.1 mph13.0 kmh 30.07 in1018.3 mb 0.00 in0.0 mm 0.00 in0.0 mm 0.00 in0.0 mm
05:22 AM 49.3°F9.6°C 43.3°F6.3°C 80% 3.4 mph 5.5 kmh 5.1 mph8.2 kmh 30.07 in1018.3 mb 0.00 in0.0 mm 0.00 in0.0 mm 0.00 in0.0 mm
05:19 AM 49.3°F9.6°C 43.3°F6.3°C 80% 3.1 mph WSW5.0 kmh WSW 7.2 mph11.6 kmh 30.07 in1018.3 mb 0.00 in0.0 mm 0.00 in0.0 mm 0.00 in0.0 mm
05:17 AM 49.3°F9.6°C 43.3°F6.3°C 80% 2.5 mph W4.0 kmh W 3.8 mph6.1 kmh 30.08 in1018.6 mb 0.00 in0.0 mm 0.00 in0.0 mm 0.00 in0.0 mm
05:15 AM 49.3°F9.6°C 43.0°F6.1°C 79% 2.9 mph WSW4.7 kmh WSW 5.8 mph9.3 kmh 30.07 in1018.3 mb 0.00 in0.0 mm 0.00 in0.0 mm 0.00 in0.0 mm
05:13 AM 49.3°F9.6°C 43.0°F6.1°C 79% 2.5 mph W4.0 kmh W 3.6 mph5.8 kmh 30.08 in1018.6 mb 0.00 in0.0 mm 0.00 in0.0 mm 0.00 in0.0 mm
05:10 AM 49.3°F9.6°C 43.0°F6.1°C 79% 2.2 mph SSW3.5 kmh SSW 3.6 mph5.8 kmh 30.08 in1018.6 mb 0.00 in0.0 mm 0.00 in0.0 mm 0.00 in0.0 mm
05:08 AM 49.3°F9.6°C 43.0°F6.1°C 79% 2.2 mph W3.5 kmh W 4.3 mph6.9 kmh 30.07 in1018.3 mb 0.00 in0.0 mm 0.00 in0.0 mm 0.00 in0.0 mm
05:06 AM 49.3°F9.6°C 43.0°F6.1°C 79% 2.2 mph W3.5 kmh W 4.9 mph7.9 kmh 30.07 in1018.3 mb 0.00 in0.0 mm 0.00 in0.0 mm 0.00 in0.0 mm
05:04 AM 49.3°F9.6°C 43.0°F6.1°C 79% 2.2 mph NNE3.5 kmh NNE 5.1 mph8.2 kmh 30.07 in1018.3 mb 0.00 in0.0 mm 0.00 in0.0 mm 0.00 in0.0 mm
05:02 AM 49.3°F9.6°C 43.0°F6.1°C 79% 2.7 mph SSW4.3 kmh SSW 5.1 mph8.2 kmh 30.08 in1018.6 mb 0.00 in0.0 mm 0.00 in0.0 mm 0.00 in0.0 mm
04:59 AM 49.3°F9.6°C 43.0°F6.1°C 79% 3.1 mph W5.0 kmh W 5.1 mph8.2 kmh 30.08 in1018.6 mb 0.00 in0.0 mm 0.00 in0.0 mm 0.00 in0.0 mm
04:57 AM 49.3°F9.6°C 43.0°F6.1°C 79% 3.1 mph SW5.0 kmh SW 6.3 mph10.1 kmh 30.08 in1018.6 mb 0.00 in0.0 mm 0.00 in0.0 mm 0.00 in0.0 mm
04:55 AM 49.3°F9.6°C 43.0°F6.1°C 79% 3.1 mph W5.0 kmh W 6.3 mph10.1 kmh 30.08 in1018.6 mb 0.00 in0.0 mm 0.00 in0.0 mm 0.00 in0.0 mm
04:53 AM 49.3°F9.6°C 43.0°F6.1°C 79% 3.6 mph WNW5.8 kmh WNW 6.0 mph9.7 kmh 30.08 in1018.6 mb 0.00 in0.0 mm 0.00 in0.0 mm 0.00 in0.0 mm
04:50 AM 49.3°F9.6°C 43.0°F6.1°C 79% 3.4 mph WNW5.5 kmh WNW 6.3 mph10.1 kmh 30.08 in1018.6 mb 0.00 in0.0 mm 0.00 in0.0 mm 0.00 in0.0 mm
04:48 AM 49.3°F9.6°C 43.0°F6.1°C 79% 3.6 mph SW5.8 kmh SW 7.2 mph11.6 kmh 30.08 in1018.6 mb 0.00 in0.0 mm 0.00 in0.0 mm 0.00 in0.0 mm
04:46 AM 49.3°F9.6°C 43.0°F6.1°C 79% 2.9 mph SSW4.7 kmh SSW 2.7 mph4.3 kmh 30.08 in1018.6 mb 0.00 in0.0 mm 0.00 in0.0 mm 0.00 in0.0 mm
04:44 AM 49.3°F9.6°C 43.0°F6.1°C 79% 4.3 mph 6.9 kmh 5.1 mph8.2 kmh 30.08 in1018.6 mb 0.00 in0.0 mm 0.00 in0.0 mm 0.00 in0.0 mm
04:42 AM 49.3°F9.6°C 43.0°F6.1°C 79% 4.9 mph NW7.9 kmh NW 12.8 mph20.6 kmh 30.08 in1018.6 mb 0.00 in0.0 mm 0.00 in0.0 mm 0.00 in0.0 mm
04:40 AM 49.3°F9.6°C 43.0°F6.1°C 79% 2.7 mph W4.3 kmh W 6.5 mph10.5 kmh 30.08 in1018.6 mb 0.00 in0.0 mm 0.00 in0.0 mm 0.00 in0.0 mm
04:37 AM 49.3°F9.6°C 43.0°F6.1°C 79% 3.4 mph W5.5 kmh W 5.8 mph9.3 kmh 30.08 in1018.6 mb 0.00 in0.0 mm 0.00 in0.0 mm 0.00 in0.0 mm
04:35 AM 49.1°F9.5°C 42.8°F6.0°C 79% 4.3 mph WSW6.9 kmh WSW 7.8 mph12.6 kmh 30.08 in1018.6 mb 0.00 in0.0 mm 0.00 in0.0 mm 0.00 in0.0 mm
04:33 AM 49.1°F9.5°C 42.8°F6.0°C 79% 3.8 mph 6.1 kmh 4.9 mph7.9 kmh 30.09 in1019.0 mb 0.00 in0.0 mm 0.00 in0.0 mm 0.00 in0.0 mm
04:31 AM 49.1°F9.5°C 42.8°F6.0°C 79% 4.9 mph WNW7.9 kmh WNW 13.0 mph20.9 kmh 30.09 in1019.0 mb 0.00 in0.0 mm 0.00 in0.0 mm 0.00 in0.0 mm
04:29 AM 49.1°F9.5°C 42.8°F6.0°C 79% 3.4 mph NNE5.5 kmh NNE 4.0 mph6.4 kmh 30.09 in1019.0 mb 0.00 in0.0 mm 0.00 in0.0 mm 0.00 in0.0 mm
04:27 AM 49.1°F9.5°C 42.8°F6.0°C 79% 3.8 mph W6.1 kmh W 5.8 mph9.3 kmh 30.09 in1019.0 mb 0.00 in0.0 mm 0.00 in0.0 mm 0.00 in0.0 mm
04:25 AM 49.1°F9.5°C 42.8°F6.0°C 79% 4.7 mph SW7.6 kmh SW 9.8 mph15.8 kmh 30.08 in1018.6 mb 0.00 in0.0 mm 0.00 in0.0 mm 0.00 in0.0 mm
04:22 AM 49.1°F9.5°C 42.8°F6.0°C 79% 4.0 mph W6.4 kmh W 6.7 mph10.8 kmh 30.09 in1019.0 mb 0.00 in0.0 mm 0.00 in0.0 mm 0.00 in0.0 mm
04:20 AM 49.1°F9.5°C 42.6°F5.9°C 78% 3.8 mph SSW6.1 kmh SSW 8.9 mph14.3 kmh 30.09 in1019.0 mb 0.00 in0.0 mm 0.00 in0.0 mm 0.00 in0.0 mm
04:18 AM 48.9°F9.4°C 42.6°F5.9°C 79% 4.0 mph W6.4 kmh W 7.2 mph11.6 kmh 30.09 in1019.0 mb 0.00 in0.0 mm 0.00 in0.0 mm 0.00 in0.0 mm
04:16 AM 48.9°F9.4°C 42.6°F5.9°C 79% 3.8 mph WSW6.1 kmh WSW 3.6 mph5.8 kmh 30.09 in1019.0 mb 0.00 in0.0 mm 0.00 in0.0 mm 0.00 in0.0 mm
04:14 AM 48.9°F9.4°C 42.6°F5.9°C 79% 5.1 mph ENE8.2 kmh ENE 13.9 mph22.4 kmh 30.09 in1019.0 mb 0.00 in0.0 mm 0.00 in0.0 mm 0.00 in0.0 mm
04:12 AM 48.9°F9.4°C 42.6°F5.9°C 79% 4.7 mph W7.6 kmh W 8.7 mph14.0 kmh 30.09 in1019.0 mb 0.00 in0.0 mm 0.00 in0.0 mm 0.00 in0.0 mm
04:09 AM 48.9°F9.4°C 42.6°F5.9°C 79% 3.6 mph NW5.8 kmh NW 6.0 mph9.7 kmh 30.09 in1019.0 mb 0.00 in0.0 mm 0.00 in0.0 mm 0.00 in0.0 mm
04:07 AM 48.9°F9.4°C 42.6°F5.9°C 79% 3.4 mph WNW5.5 kmh WNW 3.1 mph5.0 kmh 30.09 in1019.0 mb 0.00 in0.0 mm 0.00 in0.0 mm 0.00 in0.0 mm
04:05 AM 48.9°F9.4°C 42.4°F5.8°C 78% 4.0 mph W6.4 kmh W 6.3 mph10.1 kmh 30.09 in1019.0 mb 0.00 in0.0 mm 0.00 in0.0 mm 0.00 in0.0 mm
04:03 AM 48.9°F9.4°C 42.4°F5.8°C 78% 4.7 mph W7.6 kmh W 17.2 mph27.7 kmh 30.09 in1019.0 mb 0.00 in0.0 mm 0.00 in0.0 mm 0.00 in0.0 mm
04:01 AM 48.9°F9.4°C 42.4°F5.8°C 78% 2.7 mph NE4.3 kmh NE 2.9 mph4.7 kmh 30.09 in1019.0 mb 0.00 in0.0 mm 0.00 in0.0 mm 0.00 in0.0 mm
03:59 AM 48.7°F9.3°C 42.3°F5.7°C 78% 3.4 mph NNE5.5 kmh NNE 5.6 mph9.0 kmh 30.09 in1019.0 mb 0.00 in0.0 mm 0.00 in0.0 mm 0.00 in0.0 mm
03:56 AM 48.7°F9.3°C 42.3°F5.7°C 78% 3.1 mph NNW5.0 kmh NNW 6.7 mph10.8 kmh 30.09 in1019.0 mb 0.00 in0.0 mm 0.00 in0.0 mm 0.00 in0.0 mm
03:54 AM 48.7°F9.3°C 41.9°F5.5°C 77% 3.1 mph SSW5.0 kmh SSW 5.1 mph8.2 kmh 30.09 in1019.0 mb 0.00 in0.0 mm 0.00 in0.0 mm 0.00 in0.0 mm
03:52 AM 48.7°F9.3°C 41.9°F5.5°C 77% 2.5 mph NW4.0 kmh NW 4.0 mph6.4 kmh 30.09 in1019.0 mb 0.00 in0.0 mm 0.00 in0.0 mm 0.00 in0.0 mm
03:50 AM 48.7°F9.3°C 41.9°F5.5°C 77% 3.1 mph SE5.0 kmh SE 6.7 mph10.8 kmh 30.09 in1019.0 mb 0.00 in0.0 mm 0.00 in0.0 mm 0.00 in0.0 mm
03:48 AM 48.7°F9.3°C 41.9°F5.5°C 77% 2.5 mph SSW4.0 kmh SSW 3.6 mph5.8 kmh 30.09 in1019.0 mb 0.00 in0.0 mm 0.00 in0.0 mm 0.00 in0.0 mm
03:46 AM 48.7°F9.3°C 41.9°F5.5°C 77% 2.7 mph WNW4.3 kmh WNW 3.1 mph5.0 kmh 30.09 in1019.0 mb 0.00 in0.0 mm 0.00 in0.0 mm 0.00 in0.0 mm
03:43 AM 48.7°F9.3°C 41.9°F5.5°C 77% 3.4 mph WNW5.5 kmh WNW 6.5 mph10.5 kmh 30.09 in1019.0 mb 0.00 in0.0 mm 0.00 in0.0 mm 0.00 in0.0 mm
03:41 AM 48.6°F9.2°C 41.7°F5.4°C 77% 2.2 mph WNW3.5 kmh WNW 4.5 mph7.2 kmh 30.09 in1019.0 mb 0.00 in0.0 mm 0.00 in0.0 mm 0.00 in0.0 mm
03:39 AM 48.6°F9.2°C 41.7°F5.4°C 77% 1.8 mph ESE2.9 kmh ESE 4.5 mph7.2 kmh 30.10 in1019.3 mb 0.00 in0.0 mm 0.00 in0.0 mm 0.00 in0.0 mm
03:37 AM 48.6°F9.2°C 41.7°F5.4°C 77% 2.2 mph WSW3.5 kmh WSW 4.7 mph7.6 kmh 30.09 in1019.0 mb 0.00 in0.0 mm 0.00 in0.0 mm 0.00 in0.0 mm
03:34 AM 48.6°F9.2°C 41.7°F5.4°C 77% 2.2 mph W3.5 kmh W 3.8 mph6.1 kmh 30.10 in1019.3 mb 0.00 in0.0 mm 0.00 in0.0 mm 0.00 in0.0 mm
03:32 AM 48.6°F9.2°C 41.7°F5.4°C 77% 3.4 mph SW5.5 kmh SW 12.5 mph20.1 kmh 30.10 in1019.3 mb 0.00 in0.0 mm 0.00 in0.0 mm 0.00 in0.0 mm
03:30 AM 48.4°F9.1°C 41.5°F5.3°C 77% 2.7 mph NW4.3 kmh NW 3.6 mph5.8 kmh 30.11 in1019.6 mb 0.00 in0.0 mm 0.00 in0.0 mm 0.00 in0.0 mm
03:28 AM 48.2°F9.0°C 41.7°F5.4°C 78% 3.4 mph WNW5.5 kmh WNW 7.2 mph11.6 kmh 30.10 in1019.3 mb 0.00 in0.0 mm 0.00 in0.0 mm 0.00 in0.0 mm
03:26 AM 48.2°F9.0°C 41.7°F5.4°C 78% 2.5 mph WNW4.0 kmh WNW 4.7 mph7.6 kmh 30.11 in1019.6 mb 0.00 in0.0 mm 0.00 in0.0 mm 0.00 in0.0 mm
03:23 AM 48.0°F8.9°C 41.5°F5.3°C 78% 2.7 mph WNW4.3 kmh WNW 9.8 mph15.8 kmh 30.11 in1019.6 mb 0.00 in0.0 mm 0.00 in0.0 mm 0.00 in0.0 mm
03:21 AM 48.0°F8.9°C 41.5°F5.3°C 78% 1.6 mph SW2.6 kmh SW 4.0 mph6.4 kmh 30.11 in1019.6 mb 0.00 in0.0 mm 0.00 in0.0 mm 0.00 in0.0 mm
03:19 AM 48.0°F8.9°C 41.5°F5.3°C 78% 1.3 mph 2.1 kmh 2.2 mph3.5 kmh 30.11 in1019.6 mb 0.00 in0.0 mm 0.00 in0.0 mm 0.00 in0.0 mm
03:17 AM 48.0°F8.9°C 41.5°F5.3°C 78% 2.0 mph NE3.2 kmh NE 4.3 mph6.9 kmh 30.11 in1019.6 mb 0.00 in0.0 mm 0.00 in0.0 mm 0.00 in0.0 mm
03:15 AM 48.0°F8.9°C 41.5°F5.3°C 78% 2.2 mph NNE3.5 kmh NNE 3.1 mph5.0 kmh 30.11 in1019.6 mb 0.00 in0.0 mm 0.00 in0.0 mm 0.00 in0.0 mm
03:12 AM 48.0°F8.9°C 41.5°F5.3°C 78% 3.4 mph WSW5.5 kmh WSW 6.3 mph10.1 kmh 30.11 in1019.6 mb 0.00 in0.0 mm 0.00 in0.0 mm 0.00 in0.0 mm
03:10 AM 47.8°F8.8°C 41.7°F5.4°C 79% 3.4 mph WNW5.5 kmh WNW 6.7 mph10.8 kmh 30.11 in1019.6 mb 0.00 in0.0 mm 0.00 in0.0 mm 0.00 in0.0 mm
03:08 AM 47.8°F8.8°C 41.7°F5.4°C 79% 2.5 mph WNW4.0 kmh WNW 5.4 mph8.7 kmh 30.11 in1019.6 mb 0.00 in0.0 mm 0.00 in0.0 mm 0.00 in0.0 mm
03:06 AM 47.8°F8.8°C 41.7°F5.4°C 79% 1.6 mph S2.6 kmh S 4.0 mph6.4 kmh 30.11 in1019.6 mb 0.00 in0.0 mm 0.00 in0.0 mm 0.00 in0.0 mm
03:03 AM 47.8°F8.8°C 41.7°F5.4°C 79% 1.8 mph NNW2.9 kmh NNW 1.6 mph2.6 kmh 30.11 in1019.6 mb 0.00 in0.0 mm 0.00 in0.0 mm 0.00 in0.0 mm
03:01 AM 47.8°F8.8°C 41.7°F5.4°C 79% 3.1 mph E5.0 kmh E 8.7 mph14.0 kmh 30.11 in1019.6 mb 0.00 in0.0 mm 0.00 in0.0 mm 0.00 in0.0 mm
02:59 AM 47.8°F8.8°C 41.7°F5.4°C 79% 2.2 mph SW3.5 kmh SW 4.0 mph6.4 kmh 30.11 in1019.6 mb 0.00 in0.0 mm 0.00 in0.0 mm 0.00 in0.0 mm
02:57 AM 47.8°F8.8°C 41.7°F5.4°C 79% 2.2 mph WNW3.5 kmh WNW 2.5 mph4.0 kmh 30.11 in1019.6 mb 0.00 in0.0 mm 0.00 in0.0 mm 0.00 in0.0 mm
02:55 AM 47.8°F8.8°C 41.7°F5.4°C 79% 3.1 mph W5.0 kmh W 5.8 mph9.3 kmh 30.11 in1019.6 mb 0.00 in0.0 mm 0.00 in0.0 mm 0.00 in0.0 mm
02:53 AM 47.7°F8.7°C 41.5°F5.3°C 79% 3.4 mph WNW5.5 kmh WNW 9.8 mph15.8 kmh 30.11 in1019.6 mb 0.00 in0.0 mm 0.00 in0.0 mm 0.00 in0.0 mm
02:50 AM 47.8°F8.8°C 41.4°F5.2°C 78% 1.8 mph SSE2.9 kmh SSE 4.7 mph7.6 kmh 30.11 in1019.6 mb 0.00 in0.0 mm 0.00 in0.0 mm 0.00 in0.0 mm
02:48 AM 47.8°F8.8°C 41.4°F5.2°C 78% 1.8 mph ESE2.9 kmh ESE 2.0 mph3.2 kmh 30.11 in1019.6 mb 0.00 in0.0 mm 0.00 in0.0 mm 0.00 in0.0 mm
02:46 AM 47.8°F8.8°C 41.4°F5.2°C 78% 2.2 mph SW3.5 kmh SW 3.8 mph6.1 kmh 30.11 in1019.6 mb 0.00 in0.0 mm 0.00 in0.0 mm 0.00 in0.0 mm
02:44 AM 47.8°F8.8°C 41.4°F5.2°C 78% 2.0 mph WNW3.2 kmh WNW 3.6 mph5.8 kmh 30.11 in1019.6 mb 0.00 in0.0 mm 0.00 in0.0 mm 0.00 in0.0 mm
02:42 AM 47.8°F8.8°C 41.4°F5.2°C 78% 2.2 mph SSE3.5 kmh SSE 3.8 mph6.1 kmh 30.11 in1019.6 mb 0.00 in0.0 mm 0.00 in0.0 mm 0.00 in0.0 mm
02:40 AM 47.8°F8.8°C 41.4°F5.2°C 78% 2.7 mph WNW4.3 kmh WNW 3.6 mph5.8 kmh 30.11 in1019.6 mb 0.00 in0.0 mm 0.00 in0.0 mm 0.00 in0.0 mm
02:37 AM 47.8°F8.8°C 41.4°F5.2°C 78% 3.4 mph NW5.5 kmh NW 5.8 mph9.3 kmh 30.11 in1019.6 mb 0.00 in0.0 mm 0.00 in0.0 mm 0.00 in0.0 mm
02:35 AM 47.8°F8.8°C 41.4°F5.2°C 78% 3.6 mph SW5.8 kmh SW 5.8 mph9.3 kmh 30.11 in1019.6 mb 0.00 in0.0 mm 0.00 in0.0 mm 0.00 in0.0 mm
02:33 AM 47.8°F8.8°C 41.0°F5.0°C 77% 4.7 mph WSW7.6 kmh WSW 9.8 mph15.8 kmh 30.11 in1019.6 mb 0.00 in0.0 mm 0.00 in0.0 mm 0.00 in0.0 mm
02:31 AM 48.0°F8.9°C 41.2°F5.1°C 77% 4.9 mph NW7.9 kmh NW 6.9 mph11.1 kmh 30.10 in1019.3 mb 0.00 in0.0 mm 0.00 in0.0 mm 0.00 in0.0 mm
02:28 AM 48.0°F8.9°C 41.2°F5.1°C 77% 4.9 mph WSW7.9 kmh WSW 6.3 mph10.1 kmh 30.10 in1019.3 mb 0.00 in0.0 mm 0.00 in0.0 mm 0.00 in0.0 mm
02:26 AM 48.0°F8.9°C 41.2°F5.1°C 77% 5.6 mph WNW9.0 kmh WNW 11.6 mph18.7 kmh 30.11 in1019.6 mb 0.00 in0.0 mm 0.00 in0.0 mm 0.00 in0.0 mm
02:24 AM 48.0°F8.9°C 41.2°F5.1°C 77% 4.9 mph NW7.9 kmh NW 6.9 mph11.1 kmh 30.11 in1019.6 mb 0.00 in0.0 mm 0.00 in0.0 mm 0.00 in0.0 mm
02:22 AM 48.0°F8.9°C 41.2°F5.1°C 77% 4.5 mph WNW7.2 kmh WNW 5.8 mph9.3 kmh 30.11 in1019.6 mb 0.00 in0.0 mm 0.00 in0.0 mm 0.00 in0.0 mm
02:19 AM 48.0°F8.9°C 41.2°F5.1°C 77% 4.5 mph WSW7.2 kmh WSW 7.8 mph12.6 kmh 30.11 in1019.6 mb 0.00 in0.0 mm 0.00 in0.0 mm 0.00 in0.0 mm
02:17 AM 48.0°F8.9°C 41.2°F5.1°C 77% 4.7 mph W7.6 kmh W 9.4 mph15.1 kmh 30.10 in1019.3 mb 0.00 in0.0 mm 0.00 in0.0 mm 0.00 in0.0 mm
02:15 AM 48.0°F8.9°C 41.2°F5.1°C 77% 4.7 mph 7.6 kmh 5.6 mph9.0 kmh 30.10 in1019.3 mb 0.00 in0.0 mm 0.00 in0.0 mm 0.00 in0.0 mm
02:13 AM 48.0°F8.9°C 41.2°F5.1°C 77% 5.4 mph NNW8.7 kmh NNW 13.4 mph21.6 kmh 30.11 in1019.6 mb 0.00 in0.0 mm 0.00 in0.0 mm 0.00 in0.0 mm
02:10 AM 47.8°F8.8°C 41.4°F5.2°C 78% 4.5 mph WNW7.2 kmh WNW 7.8 mph12.6 kmh 30.11 in1019.6 mb 0.00 in0.0 mm 0.00 in0.0 mm 0.00 in0.0 mm
02:08 AM 47.8°F8.8°C 41.4°F5.2°C 78% 4.0 mph WSW6.4 kmh WSW 10.7 mph17.2 kmh 30.10 in1019.3 mb 0.00 in0.0 mm 0.00 in0.0 mm 0.00 in0.0 mm
02:06 AM 47.8°F8.8°C 41.4°F5.2°C 78% 3.4 mph NNE5.5 kmh NNE 11.6 mph18.7 kmh 30.10 in1019.3 mb 0.00 in0.0 mm 0.00 in0.0 mm 0.00 in0.0 mm
02:04 AM 47.7°F8.7°C 41.5°F5.3°C 79% 4.5 mph WSW7.2 kmh WSW -- 30.11 in1019.6 mb 0.00 in0.0 mm 0.00 in0.0 mm 0.00 in0.0 mm
01:59 AM 47.5°F8.6°C 41.4°F5.2°C 79% 4.5 mph NW7.2 kmh NW 6.5 mph10.5 kmh 30.11 in1019.6 mb 0.00 in0.0 mm 0.00 in0.0 mm 0.00 in0.0 mm
01:57 AM 47.5°F8.6°C 41.4°F5.2°C 79% 4.7 mph W7.6 kmh W 6.0 mph9.7 kmh 30.11 in1019.6 mb 0.00 in0.0 mm 0.00 in0.0 mm 0.00 in0.0 mm
01:55 AM 47.5°F8.6°C 41.4°F5.2°C 79% 4.7 mph NNW7.6 kmh NNW 6.9 mph11.1 kmh 30.11 in1019.6 mb 0.00 in0.0 mm 0.00 in0.0 mm 0.00 in0.0 mm
01:52 AM 47.5°F8.6°C 41.4°F5.2°C 79% 4.7 mph NNW7.6 kmh NNW 9.8 mph15.8 kmh 30.11 in1019.6 mb 0.00 in0.0 mm 0.00 in0.0 mm 0.00 in0.0 mm
01:50 AM 47.3°F8.5°C 41.2°F5.1°C 79% 4.9 mph WNW7.9 kmh WNW 10.7 mph17.2 kmh 30.11 in1019.6 mb 0.00 in0.0 mm 0.00 in0.0 mm 0.00 in0.0 mm
01:48 AM 47.5°F8.6°C 41.4°F5.2°C 79% 4.9 mph WNW7.9 kmh WNW 8.9 mph14.3 kmh 30.11 in1019.6 mb 0.00 in0.0 mm 0.00 in0.0 mm 0.00 in0.0 mm
01:46 AM 47.5°F8.6°C 41.4°F5.2°C 79% 4.3 mph NNW6.9 kmh NNW 4.7 mph7.6 kmh 30.11 in1019.6 mb 0.00 in0.0 mm 0.00 in0.0 mm 0.00 in0.0 mm
01:43 AM 47.5°F8.6°C 41.4°F5.2°C 79% 4.5 mph W7.2 kmh W 9.6 mph15.4 kmh 30.11 in1019.6 mb 0.00 in0.0 mm 0.00 in0.0 mm 0.00 in0.0 mm
01:41 AM 47.3°F8.5°C 41.2°F5.1°C 79% 4.7 mph NW7.6 kmh NW 7.6 mph12.2 kmh 30.11 in1019.6 mb 0.00 in0.0 mm 0.00 in0.0 mm 0.00 in0.0 mm
01:39 AM 47.3°F8.5°C 41.2°F5.1°C 79% 4.3 mph NW6.9 kmh NW 7.8 mph12.6 kmh 30.11 in1019.6 mb 0.00 in0.0 mm 0.00 in0.0 mm 0.00 in0.0 mm
01:37 AM 47.3°F8.5°C 41.2°F5.1°C 79% 3.8 mph WSW6.1 kmh WSW 6.3 mph10.1 kmh 30.11 in1019.6 mb 0.00 in0.0 mm 0.00 in0.0 mm 0.00 in0.0 mm
01:34 AM 47.1°F8.4°C 41.0°F5.0°C 79% 3.6 mph NW5.8 kmh NW 6.5 mph10.5 kmh 30.11 in1019.6 mb 0.00 in0.0 mm 0.00 in0.0 mm 0.00 in0.0 mm
01:32 AM 47.1°F8.4°C 41.0°F5.0°C 79% 3.8 mph SSE6.1 kmh SSE 6.3 mph10.1 kmh 30.11 in1019.6 mb 0.00 in0.0 mm 0.00 in0.0 mm 0.00 in0.0 mm
01:30 AM 47.1°F8.4°C 41.0°F5.0°C 79% 3.6 mph WNW5.8 kmh WNW 8.9 mph14.3 kmh 30.11 in1019.6 mb 0.00 in0.0 mm 0.00 in0.0 mm 0.00 in0.0 mm
01:28 AM 46.9°F8.3°C 40.8°F4.9°C 79% 4.5 mph WNW7.2 kmh WNW 11.4 mph18.3 kmh 30.11 in1019.6 mb 0.00 in0.0 mm 0.00 in0.0 mm 0.00 in0.0 mm
01:26 AM 46.9°F8.3°C 40.8°F4.9°C 79% 3.1 mph 5.0 kmh 4.0 mph6.4 kmh 30.11 in1019.6 mb 0.00 in0.0 mm 0.00 in0.0 mm 0.00 in0.0 mm
01:24 AM 46.9°F8.3°C 40.8°F4.9°C 79% 3.6 mph NW5.8 kmh NW 5.1 mph8.2 kmh 30.11 in1019.6 mb 0.00 in0.0 mm 0.00 in0.0 mm 0.00 in0.0 mm
01:21 AM 46.8°F8.2°C 40.6°F4.8°C 79% 3.6 mph WSW5.8 kmh WSW 4.3 mph6.9 kmh 30.11 in1019.6 mb 0.00 in0.0 mm 0.00 in0.0 mm 0.00 in0.0 mm
01:19 AM 46.8°F8.2°C 40.6°F4.8°C 79% 3.6 mph WSW5.8 kmh WSW 5.1 mph8.2 kmh 30.11 in1019.6 mb 0.00 in0.0 mm 0.00 in0.0 mm 0.00 in0.0 mm
01:17 AM 46.8°F8.2°C 40.6°F4.8°C 79% 3.8 mph NW6.1 kmh NW 6.0 mph9.7 kmh 30.11 in1019.6 mb 0.00 in0.0 mm 0.00 in0.0 mm 0.00 in0.0 mm
01:15 AM 46.8°F8.2°C 40.6°F4.8°C 79% 3.6 mph W5.8 kmh W 7.6 mph12.2 kmh 30.11 in1019.6 mb 0.00 in0.0 mm 0.00 in0.0 mm 0.00 in0.0 mm
01:13 AM 46.8°F8.2°C 40.6°F4.8°C 79% 4.5 mph W7.2 kmh W 12.3 mph19.8 kmh 30.11 in1019.6 mb 0.00 in0.0 mm 0.00 in0.0 mm 0.00 in0.0 mm
01:11 AM 46.6°F8.1°C 40.5°F4.7°C 79% 3.8 mph WSW6.1 kmh WSW 6.7 mph10.8 kmh 30.11 in1019.6 mb 0.00 in0.0 mm 0.00 in0.0 mm 0.00 in0.0 mm
01:08 AM 46.6°F8.1°C 40.5°F4.7°C 79% 4.7 mph WNW7.6 kmh WNW 15.9 mph25.6 kmh 30.11 in1019.6 mb 0.00 in0.0 mm 0.00 in0.0 mm 0.00 in0.0 mm
01:06 AM 46.6°F8.1°C 40.5°F4.7°C 79% 4.3 mph W6.9 kmh W 11.0 mph17.7 kmh 30.12 in1020.0 mb 0.00 in0.0 mm 0.00 in0.0 mm 0.00 in0.0 mm
01:04 AM 46.6°F8.1°C 40.5°F4.7°C 79% 4.0 mph NE6.4 kmh NE 6.9 mph11.1 kmh 30.12 in1020.0 mb 0.00 in0.0 mm 0.00 in0.0 mm 0.00 in0.0 mm
01:02 AM 46.6°F8.1°C 40.5°F4.7°C 79% 4.5 mph NW7.2 kmh NW 6.9 mph11.1 kmh 30.11 in1019.6 mb 0.00 in0.0 mm 0.00 in0.0 mm 0.00 in0.0 mm
12:59 AM 46.8°F8.2°C 41.0°F5.0°C 80% 5.4 mph W8.7 kmh W 11.9 mph19.2 kmh 30.12 in1020.0 mb 0.00 in0.0 mm 0.00 in0.0 mm 0.00 in0.0 mm
12:57 AM 46.6°F8.1°C 40.8°F4.9°C 80% 5.6 mph W9.0 kmh W 12.1 mph19.5 kmh 30.12 in1020.0 mb 0.00 in0.0 mm 0.00 in0.0 mm 0.00 in0.0 mm
12:55 AM 46.6°F8.1°C 40.8°F4.9°C 80% 4.7 mph W7.6 kmh W 7.4 mph11.9 kmh 30.12 in1020.0 mb 0.00 in0.0 mm 0.00 in0.0 mm 0.00 in0.0 mm
12:53 AM 46.6°F8.1°C 40.8°F4.9°C 80% 4.5 mph WNW7.2 kmh WNW 9.6 mph15.4 kmh 30.12 in1020.0 mb 0.00 in0.0 mm 0.00 in0.0 mm 0.00 in0.0 mm
12:50 AM 46.6°F8.1°C 40.8°F4.9°C 80% 3.6 mph NNW5.8 kmh NNW 4.5 mph7.2 kmh 30.12 in1020.0 mb 0.00 in0.0 mm 0.00 in0.0 mm 0.00 in0.0 mm
12:48 AM 46.6°F8.1°C 40.8°F4.9°C 80% 3.8 mph WSW6.1 kmh WSW 5.4 mph8.7 kmh 30.12 in1020.0 mb 0.00 in0.0 mm 0.00 in0.0 mm 0.00 in0.0 mm
12:46 AM 46.6°F8.1°C 40.8°F4.9°C 80% 4.0 mph 6.4 kmh 6.7 mph10.8 kmh 30.12 in1020.0 mb 0.00 in0.0 mm 0.00 in0.0 mm 0.00 in0.0 mm
12:44 AM 46.6°F8.1°C 41.0°F5.0°C 81% 3.8 mph NW6.1 kmh NW 7.6 mph12.2 kmh 30.12 in1020.0 mb 0.00 in0.0 mm 0.00 in0.0 mm 0.00 in0.0 mm
12:42 AM 46.6°F8.1°C 41.0°F5.0°C 81% 3.8 mph SW6.1 kmh SW 9.8 mph15.8 kmh 30.12 in1020.0 mb 0.00 in0.0 mm 0.00 in0.0 mm 0.00 in0.0 mm
12:40 AM 46.6°F8.1°C 41.0°F5.0°C 81% 4.7 mph W7.6 kmh W 8.5 mph13.7 kmh 30.12 in1020.0 mb 0.00 in0.0 mm 0.00 in0.0 mm 0.00 in0.0 mm
12:37 AM 46.6°F8.1°C 41.0°F5.0°C 81% 5.1 mph 8.2 kmh 8.7 mph14.0 kmh 30.12 in1020.0 mb 0.00 in0.0 mm 0.00 in0.0 mm 0.00 in0.0 mm
12:35 AM 46.6°F8.1°C 41.0°F5.0°C 81% 4.5 mph NNE7.2 kmh NNE 11.6 mph18.7 kmh 30.12 in1020.0 mb 0.00 in0.0 mm 0.00 in0.0 mm 0.00 in0.0 mm
12:33 AM 46.6°F8.1°C 41.4°F5.2°C 82% 3.8 mph NNW6.1 kmh NNW 6.9 mph11.1 kmh 30.12 in1020.0 mb 0.00 in0.0 mm 0.00 in0.0 mm 0.00 in0.0 mm
12:30 AM 46.6°F8.1°C 41.4°F5.2°C 82% 3.8 mph WNW6.1 kmh WNW 6.3 mph10.1 kmh 30.13 in1020.3 mb 0.00 in0.0 mm 0.00 in0.0 mm 0.00 in0.0 mm
12:28 AM 46.6°F8.1°C 41.4°F5.2°C 82% 3.6 mph ESE5.8 kmh ESE 4.7 mph7.6 kmh 30.13 in1020.3 mb 0.00 in0.0 mm 0.00 in0.0 mm 0.00 in0.0 mm
12:26 AM 46.6°F8.1°C 41.4°F5.2°C 82% 4.3 mph SSW6.9 kmh SSW 6.0 mph9.7 kmh 30.13 in1020.3 mb 0.00 in0.0 mm 0.00 in0.0 mm 0.00 in0.0 mm
12:24 AM 46.6°F8.1°C 41.4°F5.2°C 82% 4.0 mph W6.4 kmh W 7.8 mph12.6 kmh 30.13 in1020.3 mb 0.00 in0.0 mm 0.00 in0.0 mm 0.00 in0.0 mm
12:21 AM 46.6°F8.1°C 41.4°F5.2°C 82% 3.6 mph NNW5.8 kmh NNW 9.8 mph15.8 kmh 30.13 in1020.3 mb 0.00 in0.0 mm 0.00 in0.0 mm 0.00 in0.0 mm
12:19 AM 46.6°F8.1°C 41.4°F5.2°C 82% 3.1 mph W5.0 kmh W 7.4 mph11.9 kmh 30.13 in1020.3 mb 0.00 in0.0 mm 0.00 in0.0 mm 0.00 in0.0 mm
12:17 AM 46.6°F8.1°C 41.4°F5.2°C 82% 2.5 mph W4.0 kmh W 4.3 mph6.9 kmh 30.13 in1020.3 mb 0.00 in0.0 mm 0.00 in0.0 mm 0.00 in0.0 mm
12:15 AM 46.6°F8.1°C 41.4°F5.2°C 82% 3.4 mph WSW5.5 kmh WSW 6.3 mph10.1 kmh 30.14 in1020.7 mb 0.00 in0.0 mm 0.00 in0.0 mm 0.00 in0.0 mm
12:13 AM 46.6°F8.1°C 41.4°F5.2°C 82% 3.4 mph NNW5.5 kmh NNW 3.8 mph6.1 kmh 30.14 in1020.7 mb 0.00 in0.0 mm 0.00 in0.0 mm 0.00 in0.0 mm
12:10 AM 46.6°F8.1°C 41.4°F5.2°C 82% 3.8 mph NW6.1 kmh NW 5.8 mph9.3 kmh 30.14 in1020.7 mb 0.00 in0.0 mm 0.00 in0.0 mm 0.00 in0.0 mm
12:08 AM 46.6°F8.1°C 41.0°F5.0°C 81% 3.6 mph W5.8 kmh W 4.0 mph6.4 kmh 30.14 in1020.7 mb 0.00 in0.0 mm 0.00 in0.0 mm 0.00 in0.0 mm
12:06 AM 46.6°F8.1°C 41.0°F5.0°C 81% 4.3 mph SW6.9 kmh SW 10.1 mph16.3 kmh 30.14 in1020.7 mb 0.00 in0.0 mm 0.00 in0.0 mm 0.00 in0.0 mm
12:04 AM 46.6°F8.1°C 41.0°F5.0°C 81% 3.8 mph WSW6.1 kmh WSW 5.8 mph9.3 kmh 30.13 in1020.3 mb 0.00 in0.0 mm 0.00 in0.0 mm 0.00 in0.0 mm
12:02 AM 46.6°F8.1°C 41.0°F5.0°C 81% 4.0 mph SSW6.4 kmh SSW 5.8 mph9.3 kmh 30.13 in1020.3 mb 0.00 in0.0 mm 0.00 in0.0 mm 0.00 in0.0 mm